<?xml version="1.0" encoding="UTF-8" standalone="no" ?>
<gpx xmlns="http://www.topografix.com/GPX/1/1" creator="CompeGPS" version="1.1" xmlns:xsi="http://www.w3.org/2001/XMLSchema-instance" xsi:schemaLocation="http://www.topografix.com/GPX/1/1 http://www.topografix.com/GPX/1/1/gpx.xsd http://www.garmin.com/xmlschemas/GpxExtensions/v3 http://www.garmin.com/xmlschemas/GpxExtensionsv3.xsd http://www.garmin.com/xmlschemas/TrackPointExtension/v1 http://www.garmin.com/xmlschemas/TrackPointExtensionv1.xsd" xmlns:gpxtpx="http://www.garmin.com/xmlschemas/TrackPointExtension/v1">
  <metadata>
    <link href="http://www.compegps.com">
      <text>CompeGPS TEAM, SL</text>
    </link>
    <time>2014-04-07T16:09:47Z</time>
    <bounds maxlat="43.452814" maxlon="2.105939" minlat="43.428227" minlon="2.063828"/>
  </metadata>
<wpt lat="43.450196" lon="2.066240">
  <ele>275</ele>
  <name>Soreze</name>
</wpt>
<wpt lat="43.445269" lon="2.084229">
  <ele>539</ele>
  <name>La Fendeille</name>
</wpt>
<wpt lat="43.442694" lon="2.095670">
  <ele>558</ele>
  <name>Pistre</name>
</wpt>
<wpt lat="43.438434" lon="2.103675">
  <ele>560</ele>
  <name>Ruisseau d Orival</name>
</wpt>
<wpt lat="43.436057" lon="2.105514">
  <ele>400</ele>
  <name>Route D45</name>
</wpt>
<wpt lat="43.429980" lon="2.090795">
  <ele>615</ele>
  <name>Ruisseau de Malcoustat</name>
</wpt>
<wpt lat="43.442043" lon="2.073948">
  <ele>568</ele>
  <name>Oppidum de Bernicaud</name>
</wpt>
<trk>
    <name>Soreze - Bernicaud</name>
    <trkseg>
      <trkpt lat="43.450196" lon="2.066240">
        <ele>282.3</ele>
        <time>2014-04-06T09:19:52Z</time>
        <name>Soreze</name>
      </trkpt>
      <trkpt lat="43.450167" lon="2.066362">
        <ele>282.4</ele>
        <time>2014-04-06T09:20:00Z</time>
      </trkpt>
      <trkpt lat="43.450142" lon="2.066504">
        <ele>282.8</ele>
        <time>2014-04-06T09:20:09Z</time>
      </trkpt>
      <trkpt lat="43.450102" lon="2.066631">
        <ele>282.9</ele>
        <time>2014-04-06T09:20:18Z</time>
      </trkpt>
      <trkpt lat="43.450079" lon="2.066768">
        <ele>283.1</ele>
        <time>2014-04-06T09:20:26Z</time>
      </trkpt>
      <trkpt lat="43.450103" lon="2.066886">
        <ele>283.3</ele>
        <time>2014-04-06T09:20:34Z</time>
      </trkpt>
      <trkpt lat="43.450199" lon="2.066944">
        <ele>283.4</ele>
        <time>2014-04-06T09:20:43Z</time>
      </trkpt>
      <trkpt lat="43.450269" lon="2.067035">
        <ele>283.6</ele>
        <time>2014-04-06T09:20:53Z</time>
      </trkpt>
      <trkpt lat="43.450230" lon="2.067173">
        <ele>284.4</ele>
        <time>2014-04-06T09:21:04Z</time>
      </trkpt>
      <trkpt lat="43.450257" lon="2.067278">
        <ele>284.5</ele>
        <time>2014-04-06T09:21:13Z</time>
      </trkpt>
      <trkpt lat="43.450357" lon="2.067346">
        <ele>284.5</ele>
        <time>2014-04-06T09:21:23Z</time>
      </trkpt>
      <trkpt lat="43.450476" lon="2.067384">
        <ele>284.5</ele>
        <time>2014-04-06T09:21:34Z</time>
      </trkpt>
      <trkpt lat="43.450573" lon="2.067404">
        <ele>284.5</ele>
        <time>2014-04-06T09:21:44Z</time>
      </trkpt>
      <trkpt lat="43.450616" lon="2.067494">
        <ele>285.2</ele>
        <time>2014-04-06T09:21:52Z</time>
      </trkpt>
      <trkpt lat="43.450603" lon="2.067643">
        <ele>285.5</ele>
        <time>2014-04-06T09:22:01Z</time>
      </trkpt>
      <trkpt lat="43.450579" lon="2.067767">
        <ele>285.7</ele>
        <time>2014-04-06T09:22:09Z</time>
      </trkpt>
      <trkpt lat="43.450567" lon="2.067912">
        <ele>286.1</ele>
        <time>2014-04-06T09:22:17Z</time>
      </trkpt>
      <trkpt lat="43.450532" lon="2.068055">
        <ele>286.6</ele>
        <time>2014-04-06T09:22:26Z</time>
      </trkpt>
      <trkpt lat="43.450511" lon="2.068217">
        <ele>286.8</ele>
        <time>2014-04-06T09:22:37Z</time>
      </trkpt>
      <trkpt lat="43.450480" lon="2.068375">
        <ele>287.1</ele>
        <time>2014-04-06T09:22:48Z</time>
      </trkpt>
      <trkpt lat="43.450459" lon="2.068529">
        <ele>287.6</ele>
        <time>2014-04-06T09:22:57Z</time>
      </trkpt>
      <trkpt lat="43.450454" lon="2.068693">
        <ele>287.9</ele>
        <time>2014-04-06T09:23:07Z</time>
      </trkpt>
      <trkpt lat="43.450458" lon="2.068854">
        <ele>288.0</ele>
        <time>2014-04-06T09:23:17Z</time>
      </trkpt>
      <trkpt lat="43.450448" lon="2.069054">
        <ele>288.2</ele>
        <time>2014-04-06T09:23:27Z</time>
      </trkpt>
      <trkpt lat="43.450463" lon="2.069245">
        <ele>288.8</ele>
        <time>2014-04-06T09:23:40Z</time>
      </trkpt>
      <trkpt lat="43.450450" lon="2.069413">
        <ele>289.1</ele>
        <time>2014-04-06T09:23:50Z</time>
      </trkpt>
      <trkpt lat="43.450447" lon="2.069561">
        <ele>289.5</ele>
        <time>2014-04-06T09:24:00Z</time>
      </trkpt>
      <trkpt lat="43.450450" lon="2.069726">
        <ele>289.8</ele>
        <time>2014-04-06T09:24:11Z</time>
      </trkpt>
      <trkpt lat="43.450465" lon="2.069858">
        <ele>290.1</ele>
        <time>2014-04-06T09:24:20Z</time>
      </trkpt>
      <trkpt lat="43.450439" lon="2.070038">
        <ele>290.6</ele>
        <time>2014-04-06T09:24:28Z</time>
      </trkpt>
      <trkpt lat="43.450410" lon="2.070168">
        <ele>290.7</ele>
        <time>2014-04-06T09:24:37Z</time>
      </trkpt>
      <trkpt lat="43.450422" lon="2.070352">
        <ele>291.4</ele>
        <time>2014-04-06T09:24:48Z</time>
      </trkpt>
      <trkpt lat="43.450425" lon="2.070492">
        <ele>291.9</ele>
        <time>2014-04-06T09:24:57Z</time>
      </trkpt>
      <trkpt lat="43.450410" lon="2.070642">
        <ele>292.4</ele>
        <time>2014-04-06T09:25:06Z</time>
      </trkpt>
      <trkpt lat="43.450392" lon="2.070810">
        <ele>293.6</ele>
        <time>2014-04-06T09:25:17Z</time>
      </trkpt>
      <trkpt lat="43.450385" lon="2.070988">
        <ele>295.2</ele>
        <time>2014-04-06T09:25:32Z</time>
      </trkpt>
      <trkpt lat="43.450404" lon="2.071201">
        <ele>296.4</ele>
        <time>2014-04-06T09:25:44Z</time>
      </trkpt>
      <trkpt lat="43.450401" lon="2.071392">
        <ele>297.7</ele>
        <time>2014-04-06T09:25:57Z</time>
      </trkpt>
      <trkpt lat="43.450398" lon="2.071554">
        <ele>298.3</ele>
        <time>2014-04-06T09:26:08Z</time>
      </trkpt>
      <trkpt lat="43.450405" lon="2.071707">
        <ele>298.6</ele>
        <time>2014-04-06T09:26:19Z</time>
      </trkpt>
      <trkpt lat="43.450419" lon="2.071864">
        <ele>299.0</ele>
        <time>2014-04-06T09:26:28Z</time>
      </trkpt>
      <trkpt lat="43.450436" lon="2.072023">
        <ele>299.4</ele>
        <time>2014-04-06T09:26:37Z</time>
      </trkpt>
      <trkpt lat="43.450472" lon="2.072202">
        <ele>300.0</ele>
        <time>2014-04-06T09:26:48Z</time>
      </trkpt>
      <trkpt lat="43.450494" lon="2.072350">
        <ele>301.2</ele>
        <time>2014-04-06T09:26:59Z</time>
      </trkpt>
      <trkpt lat="43.450537" lon="2.072484">
        <ele>302.1</ele>
        <time>2014-04-06T09:27:08Z</time>
      </trkpt>
      <trkpt lat="43.450591" lon="2.072651">
        <ele>303.3</ele>
        <time>2014-04-06T09:27:19Z</time>
      </trkpt>
      <trkpt lat="43.450641" lon="2.072772">
        <ele>304.6</ele>
        <time>2014-04-06T09:27:29Z</time>
      </trkpt>
      <trkpt lat="43.450753" lon="2.072792">
        <ele>304.7</ele>
        <time>2014-04-06T09:27:43Z</time>
      </trkpt>
      <trkpt lat="43.450861" lon="2.072740">
        <ele>304.5</ele>
        <time>2014-04-06T09:27:51Z</time>
      </trkpt>
      <trkpt lat="43.450960" lon="2.072710">
        <ele>304.2</ele>
        <time>2014-04-06T09:27:59Z</time>
      </trkpt>
      <trkpt lat="43.451082" lon="2.072683">
        <ele>303.7</ele>
        <time>2014-04-06T09:28:11Z</time>
      </trkpt>
      <trkpt lat="43.451179" lon="2.072688">
        <ele>303.7</ele>
        <time>2014-04-06T09:28:21Z</time>
      </trkpt>
      <trkpt lat="43.451286" lon="2.072678">
        <ele>303.1</ele>
        <time>2014-04-06T09:28:30Z</time>
      </trkpt>
      <trkpt lat="43.451388" lon="2.072660">
        <ele>303.0</ele>
        <time>2014-04-06T09:28:39Z</time>
      </trkpt>
      <trkpt lat="43.451488" lon="2.072652">
        <ele>302.5</ele>
        <time>2014-04-06T09:28:48Z</time>
      </trkpt>
      <trkpt lat="43.451607" lon="2.072627">
        <ele>301.9</ele>
        <time>2014-04-06T09:28:58Z</time>
      </trkpt>
      <trkpt lat="43.451735" lon="2.072604">
        <ele>301.5</ele>
        <time>2014-04-06T09:29:10Z</time>
      </trkpt>
      <trkpt lat="43.451843" lon="2.072583">
        <ele>301.2</ele>
        <time>2014-04-06T09:29:20Z</time>
      </trkpt>
      <trkpt lat="43.451958" lon="2.072564">
        <ele>300.8</ele>
        <time>2014-04-06T09:29:31Z</time>
      </trkpt>
      <trkpt lat="43.452076" lon="2.072552">
        <ele>299.7</ele>
        <time>2014-04-06T09:29:43Z</time>
      </trkpt>
      <trkpt lat="43.452174" lon="2.072535">
        <ele>299.4</ele>
        <time>2014-04-06T09:29:52Z</time>
      </trkpt>
      <trkpt lat="43.452286" lon="2.072479">
        <ele>299.1</ele>
        <time>2014-04-06T09:30:02Z</time>
      </trkpt>
      <trkpt lat="43.452373" lon="2.072409">
        <ele>299.3</ele>
        <time>2014-04-06T09:30:28Z</time>
      </trkpt>
      <trkpt lat="43.452449" lon="2.072477">
        <ele>299.6</ele>
        <time>2014-04-06T09:30:47Z</time>
      </trkpt>
      <trkpt lat="43.452485" lon="2.072591">
        <ele>300.0</ele>
        <time>2014-04-06T09:31:16Z</time>
      </trkpt>
      <trkpt lat="43.452517" lon="2.072720">
        <ele>300.7</ele>
        <time>2014-04-06T09:31:29Z</time>
      </trkpt>
      <trkpt lat="43.452564" lon="2.072854">
        <ele>301.6</ele>
        <time>2014-04-06T09:31:40Z</time>
      </trkpt>
      <trkpt lat="43.452545" lon="2.073007">
        <ele>302.7</ele>
        <time>2014-04-06T09:31:49Z</time>
      </trkpt>
      <trkpt lat="43.452520" lon="2.073185">
        <ele>303.5</ele>
        <time>2014-04-06T09:32:01Z</time>
      </trkpt>
      <trkpt lat="43.452610" lon="2.073327">
        <ele>305.1</ele>
        <time>2014-04-06T09:32:14Z</time>
      </trkpt>
      <trkpt lat="43.452712" lon="2.073411">
        <ele>306.5</ele>
        <time>2014-04-06T09:32:26Z</time>
      </trkpt>
      <trkpt lat="43.452795" lon="2.073532">
        <ele>308.0</ele>
        <time>2014-04-06T09:32:40Z</time>
      </trkpt>
      <trkpt lat="43.452814" lon="2.073663">
        <ele>308.2</ele>
        <time>2014-04-06T09:33:42Z</time>
      </trkpt>
      <trkpt lat="43.452798" lon="2.073793">
        <ele>309.9</ele>
        <time>2014-04-06T09:34:10Z</time>
      </trkpt>
      <trkpt lat="43.452735" lon="2.073935">
        <ele>311.5</ele>
        <time>2014-04-06T09:34:32Z</time>
      </trkpt>
      <trkpt lat="43.452657" lon="2.074144">
        <ele>313.7</ele>
        <time>2014-04-06T09:34:45Z</time>
      </trkpt>
      <trkpt lat="43.452555" lon="2.074305">
        <ele>316.6</ele>
        <time>2014-04-06T09:35:02Z</time>
      </trkpt>
      <trkpt lat="43.452513" lon="2.074366">
        <ele>317.7</ele>
        <time>2014-04-06T09:35:29Z</time>
      </trkpt>
      <trkpt lat="43.452420" lon="2.074489">
        <ele>320.8</ele>
        <time>2014-04-06T09:35:46Z</time>
      </trkpt>
      <trkpt lat="43.452329" lon="2.074595">
        <ele>323.5</ele>
        <time>2014-04-06T09:36:05Z</time>
      </trkpt>
      <trkpt lat="43.452222" lon="2.074708">
        <ele>326.9</ele>
        <time>2014-04-06T09:36:21Z</time>
      </trkpt>
      <trkpt lat="43.452125" lon="2.074784">
        <ele>329.3</ele>
        <time>2014-04-06T09:36:41Z</time>
      </trkpt>
      <trkpt lat="43.452003" lon="2.074886">
        <ele>331.9</ele>
        <time>2014-04-06T09:36:56Z</time>
      </trkpt>
      <trkpt lat="43.451875" lon="2.074991">
        <ele>335.1</ele>
        <time>2014-04-06T09:37:11Z</time>
      </trkpt>
      <trkpt lat="43.451752" lon="2.075058">
        <ele>338.0</ele>
        <time>2014-04-06T09:37:31Z</time>
      </trkpt>
      <trkpt lat="43.451637" lon="2.075110">
        <ele>340.9</ele>
        <time>2014-04-06T09:37:49Z</time>
      </trkpt>
      <trkpt lat="43.451538" lon="2.075136">
        <ele>343.5</ele>
        <time>2014-04-06T09:38:06Z</time>
      </trkpt>
      <trkpt lat="43.451418" lon="2.075184">
        <ele>347.5</ele>
        <time>2014-04-06T09:38:23Z</time>
      </trkpt>
      <trkpt lat="43.451294" lon="2.075205">
        <ele>349.4</ele>
        <time>2014-04-06T09:38:37Z</time>
      </trkpt>
      <trkpt lat="43.451180" lon="2.075211">
        <ele>352.1</ele>
        <time>2014-04-06T09:38:52Z</time>
      </trkpt>
      <trkpt lat="43.451042" lon="2.075232">
        <ele>355.1</ele>
        <time>2014-04-06T09:39:08Z</time>
      </trkpt>
      <trkpt lat="43.450907" lon="2.075291">
        <ele>358.1</ele>
        <time>2014-04-06T09:39:23Z</time>
      </trkpt>
      <trkpt lat="43.450824" lon="2.075404">
        <ele>360.6</ele>
        <time>2014-04-06T09:39:37Z</time>
      </trkpt>
      <trkpt lat="43.450800" lon="2.075556">
        <ele>362.9</ele>
        <time>2014-04-06T09:39:50Z</time>
      </trkpt>
      <trkpt lat="43.450761" lon="2.075694">
        <ele>364.4</ele>
        <time>2014-04-06T09:40:00Z</time>
      </trkpt>
      <trkpt lat="43.450722" lon="2.075846">
        <ele>366.5</ele>
        <time>2014-04-06T09:40:15Z</time>
      </trkpt>
      <trkpt lat="43.450682" lon="2.076034">
        <ele>368.7</ele>
        <time>2014-04-06T09:40:33Z</time>
      </trkpt>
      <trkpt lat="43.450600" lon="2.076162">
        <ele>370.9</ele>
        <time>2014-04-06T09:40:53Z</time>
      </trkpt>
      <trkpt lat="43.450517" lon="2.076305">
        <ele>372.9</ele>
        <time>2014-04-06T09:41:13Z</time>
      </trkpt>
      <trkpt lat="43.450454" lon="2.076440">
        <ele>375.1</ele>
        <time>2014-04-06T09:41:33Z</time>
      </trkpt>
      <trkpt lat="43.450409" lon="2.076610">
        <ele>377.8</ele>
        <time>2014-04-06T09:41:51Z</time>
      </trkpt>
      <trkpt lat="43.450364" lon="2.076747">
        <ele>380.4</ele>
        <time>2014-04-06T09:42:07Z</time>
      </trkpt>
      <trkpt lat="43.450392" lon="2.076885">
        <ele>383.9</ele>
        <time>2014-04-06T09:42:25Z</time>
      </trkpt>
      <trkpt lat="43.450500" lon="2.077038">
        <ele>387.0</ele>
        <time>2014-04-06T09:42:42Z</time>
      </trkpt>
      <trkpt lat="43.450583" lon="2.077189">
        <ele>389.6</ele>
        <time>2014-04-06T09:42:56Z</time>
      </trkpt>
      <trkpt lat="43.450683" lon="2.077276">
        <ele>393.6</ele>
        <time>2014-04-06T09:43:14Z</time>
      </trkpt>
      <trkpt lat="43.450744" lon="2.077405">
        <ele>397.5</ele>
        <time>2014-04-06T09:43:30Z</time>
      </trkpt>
      <trkpt lat="43.450707" lon="2.077526">
        <ele>402.1</ele>
        <time>2014-04-06T09:43:47Z</time>
      </trkpt>
      <trkpt lat="43.450598" lon="2.077557">
        <ele>404.5</ele>
        <time>2014-04-06T09:44:06Z</time>
      </trkpt>
      <trkpt lat="43.450486" lon="2.077668">
        <ele>406.2</ele>
        <time>2014-04-06T09:44:19Z</time>
      </trkpt>
      <trkpt lat="43.450401" lon="2.077812">
        <ele>408.2</ele>
        <time>2014-04-06T09:44:36Z</time>
      </trkpt>
      <trkpt lat="43.450346" lon="2.077935">
        <ele>409.6</ele>
        <time>2014-04-06T09:44:48Z</time>
      </trkpt>
      <trkpt lat="43.450243" lon="2.078015">
        <ele>412.6</ele>
        <time>2014-04-06T09:45:05Z</time>
      </trkpt>
      <trkpt lat="43.450206" lon="2.078112">
        <ele>412.4</ele>
        <time>2014-04-06T09:45:32Z</time>
      </trkpt>
      <trkpt lat="43.450188" lon="2.078147">
        <ele>414.7</ele>
        <time>2014-04-06T09:46:27Z</time>
      </trkpt>
      <trkpt lat="43.450124" lon="2.078261">
        <ele>417.5</ele>
        <time>2014-04-06T09:49:00Z</time>
      </trkpt>
      <trkpt lat="43.450053" lon="2.078356">
        <ele>418.7</ele>
        <time>2014-04-06T09:49:08Z</time>
      </trkpt>
      <trkpt lat="43.449982" lon="2.078459">
        <ele>420.4</ele>
        <time>2014-04-06T09:49:17Z</time>
      </trkpt>
      <trkpt lat="43.449919" lon="2.078566">
        <ele>421.7</ele>
        <time>2014-04-06T09:49:29Z</time>
      </trkpt>
      <trkpt lat="43.449856" lon="2.078720">
        <ele>423.9</ele>
        <time>2014-04-06T09:49:41Z</time>
      </trkpt>
      <trkpt lat="43.449771" lon="2.078839">
        <ele>425.8</ele>
        <time>2014-04-06T09:49:58Z</time>
      </trkpt>
      <trkpt lat="43.449668" lon="2.078958">
        <ele>429.9</ele>
        <time>2014-04-06T09:50:15Z</time>
      </trkpt>
      <trkpt lat="43.449588" lon="2.079043">
        <ele>432.4</ele>
        <time>2014-04-06T09:50:27Z</time>
      </trkpt>
      <trkpt lat="43.449499" lon="2.079141">
        <ele>433.9</ele>
        <time>2014-04-06T09:50:38Z</time>
      </trkpt>
      <trkpt lat="43.449425" lon="2.079255">
        <ele>435.4</ele>
        <time>2014-04-06T09:50:50Z</time>
      </trkpt>
      <trkpt lat="43.449354" lon="2.079348">
        <ele>436.4</ele>
        <time>2014-04-06T09:51:01Z</time>
      </trkpt>
      <trkpt lat="43.449294" lon="2.079474">
        <ele>437.7</ele>
        <time>2014-04-06T09:51:11Z</time>
      </trkpt>
      <trkpt lat="43.449217" lon="2.079610">
        <ele>439.3</ele>
        <time>2014-04-06T09:51:22Z</time>
      </trkpt>
      <trkpt lat="43.449139" lon="2.079733">
        <ele>441.0</ele>
        <time>2014-04-06T09:51:33Z</time>
      </trkpt>
      <trkpt lat="43.449042" lon="2.079837">
        <ele>442.5</ele>
        <time>2014-04-06T09:51:44Z</time>
      </trkpt>
      <trkpt lat="43.448957" lon="2.079908">
        <ele>444.1</ele>
        <time>2014-04-06T09:51:56Z</time>
      </trkpt>
      <trkpt lat="43.448878" lon="2.080000">
        <ele>445.2</ele>
        <time>2014-04-06T09:52:07Z</time>
      </trkpt>
      <trkpt lat="43.448820" lon="2.080116">
        <ele>446.4</ele>
        <time>2014-04-06T09:52:33Z</time>
      </trkpt>
      <trkpt lat="43.448732" lon="2.080266">
        <ele>449.6</ele>
        <time>2014-04-06T09:52:49Z</time>
      </trkpt>
      <trkpt lat="43.448659" lon="2.080411">
        <ele>452.3</ele>
        <time>2014-04-06T09:53:04Z</time>
      </trkpt>
      <trkpt lat="43.448565" lon="2.080541">
        <ele>453.7</ele>
        <time>2014-04-06T09:53:18Z</time>
      </trkpt>
      <trkpt lat="43.448483" lon="2.080671">
        <ele>456.1</ele>
        <time>2014-04-06T09:53:33Z</time>
      </trkpt>
      <trkpt lat="43.448408" lon="2.080804">
        <ele>458.3</ele>
        <time>2014-04-06T09:53:47Z</time>
      </trkpt>
      <trkpt lat="43.448347" lon="2.080958">
        <ele>460.8</ele>
        <time>2014-04-06T09:54:02Z</time>
      </trkpt>
      <trkpt lat="43.448261" lon="2.081104">
        <ele>463.9</ele>
        <time>2014-04-06T09:54:18Z</time>
      </trkpt>
      <trkpt lat="43.448176" lon="2.081251">
        <ele>466.4</ele>
        <time>2014-04-06T09:54:33Z</time>
      </trkpt>
      <trkpt lat="43.448117" lon="2.081422">
        <ele>468.5</ele>
        <time>2014-04-06T09:54:45Z</time>
      </trkpt>
      <trkpt lat="43.448046" lon="2.081583">
        <ele>472.0</ele>
        <time>2014-04-06T09:55:05Z</time>
      </trkpt>
      <trkpt lat="43.447969" lon="2.081706">
        <ele>475.3</ele>
        <time>2014-04-06T09:55:22Z</time>
      </trkpt>
      <trkpt lat="43.447892" lon="2.081831">
        <ele>478.7</ele>
        <time>2014-04-06T09:55:37Z</time>
      </trkpt>
      <trkpt lat="43.447820" lon="2.081977">
        <ele>482.1</ele>
        <time>2014-04-06T09:55:53Z</time>
      </trkpt>
      <trkpt lat="43.447765" lon="2.082117">
        <ele>485.5</ele>
        <time>2014-04-06T09:56:10Z</time>
      </trkpt>
      <trkpt lat="43.447705" lon="2.082237">
        <ele>488.6</ele>
        <time>2014-04-06T09:56:27Z</time>
      </trkpt>
      <trkpt lat="43.447589" lon="2.082381">
        <ele>491.0</ele>
        <time>2014-04-06T09:56:39Z</time>
      </trkpt>
      <trkpt lat="43.447500" lon="2.082527">
        <ele>493.3</ele>
        <time>2014-04-06T09:56:53Z</time>
      </trkpt>
      <trkpt lat="43.447418" lon="2.082713">
        <ele>495.5</ele>
        <time>2014-04-06T09:57:07Z</time>
      </trkpt>
      <trkpt lat="43.447333" lon="2.082854">
        <ele>498.4</ele>
        <time>2014-04-06T09:57:20Z</time>
      </trkpt>
      <trkpt lat="43.447276" lon="2.083027">
        <ele>500.5</ele>
        <time>2014-04-06T09:57:33Z</time>
      </trkpt>
      <trkpt lat="43.447197" lon="2.083237">
        <ele>503.0</ele>
        <time>2014-04-06T09:57:47Z</time>
      </trkpt>
      <trkpt lat="43.447138" lon="2.083383">
        <ele>505.0</ele>
        <time>2014-04-06T09:58:02Z</time>
      </trkpt>
      <trkpt lat="43.447060" lon="2.083504">
        <ele>506.4</ele>
        <time>2014-04-06T09:58:14Z</time>
      </trkpt>
      <trkpt lat="43.446992" lon="2.083627">
        <ele>507.8</ele>
        <time>2014-04-06T09:58:26Z</time>
      </trkpt>
      <trkpt lat="43.446918" lon="2.083730">
        <ele>510.0</ele>
        <time>2014-04-06T09:58:35Z</time>
      </trkpt>
      <trkpt lat="43.446884" lon="2.083884">
        <ele>512.6</ele>
        <time>2014-04-06T09:58:50Z</time>
      </trkpt>
      <trkpt lat="43.446831" lon="2.084042">
        <ele>514.6</ele>
        <time>2014-04-06T09:59:01Z</time>
      </trkpt>
      <trkpt lat="43.446821" lon="2.084202">
        <ele>516.7</ele>
        <time>2014-04-06T09:59:16Z</time>
      </trkpt>
      <trkpt lat="43.446782" lon="2.084374">
        <ele>518.0</ele>
        <time>2014-04-06T09:59:29Z</time>
      </trkpt>
      <trkpt lat="43.446742" lon="2.084551">
        <ele>519.2</ele>
        <time>2014-04-06T09:59:40Z</time>
      </trkpt>
      <trkpt lat="43.446680" lon="2.084744">
        <ele>520.4</ele>
        <time>2014-04-06T09:59:53Z</time>
      </trkpt>
      <trkpt lat="43.446607" lon="2.084906">
        <ele>520.9</ele>
        <time>2014-04-06T10:00:12Z</time>
      </trkpt>
      <trkpt lat="43.446585" lon="2.085059">
        <ele>522.6</ele>
        <time>2014-04-06T10:00:28Z</time>
      </trkpt>
      <trkpt lat="43.446508" lon="2.085185">
        <ele>524.3</ele>
        <time>2014-04-06T10:00:41Z</time>
      </trkpt>
      <trkpt lat="43.446432" lon="2.085342">
        <ele>525.9</ele>
        <time>2014-04-06T10:00:56Z</time>
      </trkpt>
      <trkpt lat="43.446318" lon="2.085453">
        <ele>528.0</ele>
        <time>2014-04-06T10:01:11Z</time>
      </trkpt>
      <trkpt lat="43.446209" lon="2.085543">
        <ele>530.4</ele>
        <time>2014-04-06T10:01:27Z</time>
      </trkpt>
      <trkpt lat="43.446146" lon="2.085638">
        <ele>533.8</ele>
        <time>2014-04-06T10:01:46Z</time>
      </trkpt>
      <trkpt lat="43.446093" lon="2.085623">
        <ele>534.7</ele>
        <time>2014-04-06T10:02:07Z</time>
      </trkpt>
      <trkpt lat="43.446051" lon="2.085518">
        <ele>535.3</ele>
        <time>2014-04-06T10:02:17Z</time>
      </trkpt>
      <trkpt lat="43.446012" lon="2.085401">
        <ele>536.5</ele>
        <time>2014-04-06T10:02:26Z</time>
      </trkpt>
      <trkpt lat="43.445941" lon="2.085296">
        <ele>537.4</ele>
        <time>2014-04-06T10:02:35Z</time>
      </trkpt>
      <trkpt lat="43.445877" lon="2.085188">
        <ele>538.5</ele>
        <time>2014-04-06T10:02:44Z</time>
      </trkpt>
      <trkpt lat="43.445819" lon="2.085078">
        <ele>539.6</ele>
        <time>2014-04-06T10:02:53Z</time>
      </trkpt>
      <trkpt lat="43.445733" lon="2.085017">
        <ele>539.9</ele>
        <time>2014-04-06T10:03:04Z</time>
      </trkpt>
      <trkpt lat="43.445677" lon="2.084911">
        <ele>539.6</ele>
        <time>2014-04-06T10:03:15Z</time>
      </trkpt>
      <trkpt lat="43.445639" lon="2.084801">
        <ele>539.6</ele>
        <time>2014-04-06T10:03:29Z</time>
      </trkpt>
      <trkpt lat="43.445580" lon="2.084754">
        <ele>539.9</ele>
        <time>2014-04-06T10:08:13Z</time>
      </trkpt>
      <trkpt lat="43.445551" lon="2.084679">
        <ele>539.8</ele>
        <time>2014-04-06T10:17:19Z</time>
      </trkpt>
      <trkpt lat="43.445459" lon="2.084633">
        <ele>541.1</ele>
        <time>2014-04-06T10:17:30Z</time>
      </trkpt>
      <trkpt lat="43.445366" lon="2.084600">
        <ele>542.7</ele>
        <time>2014-04-06T10:17:39Z</time>
      </trkpt>
      <trkpt lat="43.445326" lon="2.084485">
        <ele>543.8</ele>
        <time>2014-04-06T10:17:47Z</time>
      </trkpt>
      <trkpt lat="43.445291" lon="2.084367">
        <ele>544.0</ele>
        <time>2014-04-06T10:17:55Z</time>
      </trkpt>
      <trkpt lat="43.445269" lon="2.084229">
        <ele>543.8</ele>
        <time>2014-04-06T10:18:40Z</time>
        <name>La Fendeille</name>
      </trkpt>
      <trkpt lat="43.445314" lon="2.084402">
        <ele>541.8</ele>
        <time>2014-04-06T10:18:50Z</time>
      </trkpt>
      <trkpt lat="43.445356" lon="2.084532">
        <ele>540.5</ele>
        <time>2014-04-06T10:18:56Z</time>
      </trkpt>
      <trkpt lat="43.445409" lon="2.084643">
        <ele>540.6</ele>
        <time>2014-04-06T10:19:01Z</time>
      </trkpt>
      <trkpt lat="43.445494" lon="2.084659">
        <ele>539.3</ele>
        <time>2014-04-06T10:19:13Z</time>
      </trkpt>
      <trkpt lat="43.445592" lon="2.084751">
        <ele>538.8</ele>
        <time>2014-04-06T10:22:33Z</time>
      </trkpt>
      <trkpt lat="43.445707" lon="2.084864">
        <ele>538.7</ele>
        <time>2014-04-06T10:28:25Z</time>
      </trkpt>
      <trkpt lat="43.445731" lon="2.084984">
        <ele>539.0</ele>
        <time>2014-04-06T10:28:36Z</time>
      </trkpt>
      <trkpt lat="43.445745" lon="2.085109">
        <ele>538.8</ele>
        <time>2014-04-06T10:28:44Z</time>
      </trkpt>
      <trkpt lat="43.445757" lon="2.085242">
        <ele>538.8</ele>
        <time>2014-04-06T10:28:53Z</time>
      </trkpt>
      <trkpt lat="43.445726" lon="2.085359">
        <ele>539.0</ele>
        <time>2014-04-06T10:29:02Z</time>
      </trkpt>
      <trkpt lat="43.445716" lon="2.085483">
        <ele>538.7</ele>
        <time>2014-04-06T10:29:11Z</time>
      </trkpt>
      <trkpt lat="43.445751" lon="2.085600">
        <ele>538.3</ele>
        <time>2014-04-06T10:29:20Z</time>
      </trkpt>
      <trkpt lat="43.445745" lon="2.085727">
        <ele>538.0</ele>
        <time>2014-04-06T10:29:29Z</time>
      </trkpt>
      <trkpt lat="43.445709" lon="2.085849">
        <ele>537.8</ele>
        <time>2014-04-06T10:29:37Z</time>
      </trkpt>
      <trkpt lat="43.445669" lon="2.085970">
        <ele>537.3</ele>
        <time>2014-04-06T10:29:46Z</time>
      </trkpt>
      <trkpt lat="43.445625" lon="2.086105">
        <ele>536.6</ele>
        <time>2014-04-06T10:29:56Z</time>
      </trkpt>
      <trkpt lat="43.445566" lon="2.086221">
        <ele>534.9</ele>
        <time>2014-04-06T10:30:07Z</time>
      </trkpt>
      <trkpt lat="43.445592" lon="2.086377">
        <ele>533.1</ele>
        <time>2014-04-06T10:30:22Z</time>
      </trkpt>
      <trkpt lat="43.445534" lon="2.086524">
        <ele>531.5</ele>
        <time>2014-04-06T10:30:35Z</time>
      </trkpt>
      <trkpt lat="43.445504" lon="2.086652">
        <ele>530.4</ele>
        <time>2014-04-06T10:30:47Z</time>
      </trkpt>
      <trkpt lat="43.445455" lon="2.086800">
        <ele>529.3</ele>
        <time>2014-04-06T10:30:59Z</time>
      </trkpt>
      <trkpt lat="43.445398" lon="2.086914">
        <ele>528.6</ele>
        <time>2014-04-06T10:31:15Z</time>
      </trkpt>
      <trkpt lat="43.445302" lon="2.086949">
        <ele>528.0</ele>
        <time>2014-04-06T10:31:25Z</time>
      </trkpt>
      <trkpt lat="43.445204" lon="2.086987">
        <ele>527.7</ele>
        <time>2014-04-06T10:31:35Z</time>
      </trkpt>
      <trkpt lat="43.445116" lon="2.087052">
        <ele>527.2</ele>
        <time>2014-04-06T10:31:46Z</time>
      </trkpt>
      <trkpt lat="43.445048" lon="2.087140">
        <ele>526.8</ele>
        <time>2014-04-06T10:31:54Z</time>
      </trkpt>
      <trkpt lat="43.444995" lon="2.087255">
        <ele>527.1</ele>
        <time>2014-04-06T10:32:02Z</time>
      </trkpt>
      <trkpt lat="43.444955" lon="2.087370">
        <ele>527.4</ele>
        <time>2014-04-06T10:32:11Z</time>
      </trkpt>
      <trkpt lat="43.444911" lon="2.087490">
        <ele>527.8</ele>
        <time>2014-04-06T10:32:19Z</time>
      </trkpt>
      <trkpt lat="43.444854" lon="2.087595">
        <ele>528.4</ele>
        <time>2014-04-06T10:32:27Z</time>
      </trkpt>
      <trkpt lat="43.444780" lon="2.087680">
        <ele>529.1</ele>
        <time>2014-04-06T10:32:35Z</time>
      </trkpt>
      <trkpt lat="43.444712" lon="2.087759">
        <ele>529.8</ele>
        <time>2014-04-06T10:32:42Z</time>
      </trkpt>
      <trkpt lat="43.444630" lon="2.087857">
        <ele>530.5</ele>
        <time>2014-04-06T10:32:50Z</time>
      </trkpt>
      <trkpt lat="43.444555" lon="2.087946">
        <ele>531.1</ele>
        <time>2014-04-06T10:32:58Z</time>
      </trkpt>
      <trkpt lat="43.444484" lon="2.088030">
        <ele>531.8</ele>
        <time>2014-04-06T10:33:06Z</time>
      </trkpt>
      <trkpt lat="43.444422" lon="2.088122">
        <ele>532.4</ele>
        <time>2014-04-06T10:33:13Z</time>
      </trkpt>
      <trkpt lat="43.444355" lon="2.088210">
        <ele>533.3</ele>
        <time>2014-04-06T10:33:20Z</time>
      </trkpt>
      <trkpt lat="43.444277" lon="2.088304">
        <ele>534.0</ele>
        <time>2014-04-06T10:33:28Z</time>
      </trkpt>
      <trkpt lat="43.444205" lon="2.088392">
        <ele>534.2</ele>
        <time>2014-04-06T10:33:35Z</time>
      </trkpt>
      <trkpt lat="43.444133" lon="2.088495">
        <ele>534.8</ele>
        <time>2014-04-06T10:33:43Z</time>
      </trkpt>
      <trkpt lat="43.444069" lon="2.088592">
        <ele>535.2</ele>
        <time>2014-04-06T10:33:51Z</time>
      </trkpt>
      <trkpt lat="43.444007" lon="2.088693">
        <ele>535.4</ele>
        <time>2014-04-06T10:33:58Z</time>
      </trkpt>
      <trkpt lat="43.443946" lon="2.088815">
        <ele>535.5</ele>
        <time>2014-04-06T10:34:07Z</time>
      </trkpt>
      <trkpt lat="43.443892" lon="2.088924">
        <ele>535.8</ele>
        <time>2014-04-06T10:34:15Z</time>
      </trkpt>
      <trkpt lat="43.443835" lon="2.089041">
        <ele>535.9</ele>
        <time>2014-04-06T10:34:23Z</time>
      </trkpt>
      <trkpt lat="43.443787" lon="2.089163">
        <ele>536.3</ele>
        <time>2014-04-06T10:34:31Z</time>
      </trkpt>
      <trkpt lat="43.443742" lon="2.089282">
        <ele>537.0</ele>
        <time>2014-04-06T10:34:39Z</time>
      </trkpt>
      <trkpt lat="43.443685" lon="2.089389">
        <ele>537.4</ele>
        <time>2014-04-06T10:34:47Z</time>
      </trkpt>
      <trkpt lat="43.443632" lon="2.089514">
        <ele>538.0</ele>
        <time>2014-04-06T10:34:54Z</time>
      </trkpt>
      <trkpt lat="43.443588" lon="2.089635">
        <ele>539.1</ele>
        <time>2014-04-06T10:35:02Z</time>
      </trkpt>
      <trkpt lat="43.443557" lon="2.089753">
        <ele>540.2</ele>
        <time>2014-04-06T10:35:10Z</time>
      </trkpt>
      <trkpt lat="43.443525" lon="2.089886">
        <ele>540.5</ele>
        <time>2014-04-06T10:35:18Z</time>
      </trkpt>
      <trkpt lat="43.443481" lon="2.090034">
        <ele>541.2</ele>
        <time>2014-04-06T10:35:27Z</time>
      </trkpt>
      <trkpt lat="43.443430" lon="2.090153">
        <ele>541.4</ele>
        <time>2014-04-06T10:35:34Z</time>
      </trkpt>
      <trkpt lat="43.443415" lon="2.090199">
        <ele>541.3</ele>
        <time>2014-04-06T10:36:06Z</time>
      </trkpt>
      <trkpt lat="43.443386" lon="2.090273">
        <ele>541.5</ele>
        <time>2014-04-06T10:36:15Z</time>
      </trkpt>
      <trkpt lat="43.443334" lon="2.090368">
        <ele>541.5</ele>
        <time>2014-04-06T10:36:22Z</time>
      </trkpt>
      <trkpt lat="43.443279" lon="2.090481">
        <ele>541.6</ele>
        <time>2014-04-06T10:36:31Z</time>
      </trkpt>
      <trkpt lat="43.443219" lon="2.090598">
        <ele>541.8</ele>
        <time>2014-04-06T10:36:39Z</time>
      </trkpt>
      <trkpt lat="43.443172" lon="2.090712">
        <ele>542.2</ele>
        <time>2014-04-06T10:36:47Z</time>
      </trkpt>
      <trkpt lat="43.443125" lon="2.090834">
        <ele>542.2</ele>
        <time>2014-04-06T10:36:54Z</time>
      </trkpt>
      <trkpt lat="43.443068" lon="2.090974">
        <ele>541.6</ele>
        <time>2014-04-06T10:37:03Z</time>
      </trkpt>
      <trkpt lat="43.443008" lon="2.091094">
        <ele>541.3</ele>
        <time>2014-04-06T10:37:11Z</time>
      </trkpt>
      <trkpt lat="43.442956" lon="2.091229">
        <ele>541.3</ele>
        <time>2014-04-06T10:37:21Z</time>
      </trkpt>
      <trkpt lat="43.442925" lon="2.091371">
        <ele>541.3</ele>
        <time>2014-04-06T10:37:30Z</time>
      </trkpt>
      <trkpt lat="43.442902" lon="2.091535">
        <ele>541.5</ele>
        <time>2014-04-06T10:37:40Z</time>
      </trkpt>
      <trkpt lat="43.442941" lon="2.091690">
        <ele>541.7</ele>
        <time>2014-04-06T10:37:50Z</time>
      </trkpt>
      <trkpt lat="43.442993" lon="2.091821">
        <ele>542.1</ele>
        <time>2014-04-06T10:38:00Z</time>
      </trkpt>
      <trkpt lat="43.443054" lon="2.091929">
        <ele>542.5</ele>
        <time>2014-04-06T10:38:08Z</time>
      </trkpt>
      <trkpt lat="43.443126" lon="2.092058">
        <ele>543.2</ele>
        <time>2014-04-06T10:38:18Z</time>
      </trkpt>
      <trkpt lat="43.443192" lon="2.092173">
        <ele>544.0</ele>
        <time>2014-04-06T10:38:27Z</time>
      </trkpt>
      <trkpt lat="43.443263" lon="2.092287">
        <ele>545.1</ele>
        <time>2014-04-06T10:38:36Z</time>
      </trkpt>
      <trkpt lat="43.443322" lon="2.092400">
        <ele>546.0</ele>
        <time>2014-04-06T10:38:45Z</time>
      </trkpt>
      <trkpt lat="43.443369" lon="2.092519">
        <ele>546.9</ele>
        <time>2014-04-06T10:38:54Z</time>
      </trkpt>
      <trkpt lat="43.443427" lon="2.092648">
        <ele>547.2</ele>
        <time>2014-04-06T10:39:05Z</time>
      </trkpt>
      <trkpt lat="43.443491" lon="2.092749">
        <ele>546.8</ele>
        <time>2014-04-06T10:39:16Z</time>
      </trkpt>
      <trkpt lat="43.443539" lon="2.092858">
        <ele>546.1</ele>
        <time>2014-04-06T10:39:25Z</time>
      </trkpt>
      <trkpt lat="43.443591" lon="2.092965">
        <ele>545.3</ele>
        <time>2014-04-06T10:39:34Z</time>
      </trkpt>
      <trkpt lat="43.443638" lon="2.093083">
        <ele>544.3</ele>
        <time>2014-04-06T10:39:44Z</time>
      </trkpt>
      <trkpt lat="43.443680" lon="2.093193">
        <ele>543.2</ele>
        <time>2014-04-06T10:39:52Z</time>
      </trkpt>
      <trkpt lat="43.443727" lon="2.093330">
        <ele>542.2</ele>
        <time>2014-04-06T10:40:01Z</time>
      </trkpt>
      <trkpt lat="43.443780" lon="2.093459">
        <ele>541.2</ele>
        <time>2014-04-06T10:40:10Z</time>
      </trkpt>
      <trkpt lat="43.443817" lon="2.093581">
        <ele>540.4</ele>
        <time>2014-04-06T10:40:18Z</time>
      </trkpt>
      <trkpt lat="43.443859" lon="2.093720">
        <ele>539.5</ele>
        <time>2014-04-06T10:40:28Z</time>
      </trkpt>
      <trkpt lat="43.443899" lon="2.093849">
        <ele>538.1</ele>
        <time>2014-04-06T10:40:37Z</time>
      </trkpt>
      <trkpt lat="43.443939" lon="2.093989">
        <ele>537.0</ele>
        <time>2014-04-06T10:40:47Z</time>
      </trkpt>
      <trkpt lat="43.443968" lon="2.094125">
        <ele>535.8</ele>
        <time>2014-04-06T10:40:57Z</time>
      </trkpt>
      <trkpt lat="43.443993" lon="2.094264">
        <ele>534.7</ele>
        <time>2014-04-06T10:41:07Z</time>
      </trkpt>
      <trkpt lat="43.444032" lon="2.094391">
        <ele>533.4</ele>
        <time>2014-04-06T10:41:17Z</time>
      </trkpt>
      <trkpt lat="43.444063" lon="2.094540">
        <ele>532.0</ele>
        <time>2014-04-06T10:41:28Z</time>
      </trkpt>
      <trkpt lat="43.444101" lon="2.094675">
        <ele>530.3</ele>
        <time>2014-04-06T10:41:38Z</time>
      </trkpt>
      <trkpt lat="43.444130" lon="2.094806">
        <ele>529.0</ele>
        <time>2014-04-06T10:41:47Z</time>
      </trkpt>
      <trkpt lat="43.444178" lon="2.094947">
        <ele>527.6</ele>
        <time>2014-04-06T10:41:59Z</time>
      </trkpt>
      <trkpt lat="43.444194" lon="2.095074">
        <ele>526.6</ele>
        <time>2014-04-06T10:42:08Z</time>
      </trkpt>
      <trkpt lat="43.444200" lon="2.095208">
        <ele>525.2</ele>
        <time>2014-04-06T10:42:17Z</time>
      </trkpt>
      <trkpt lat="43.444197" lon="2.095343">
        <ele>524.3</ele>
        <time>2014-04-06T10:42:26Z</time>
      </trkpt>
      <trkpt lat="43.444192" lon="2.095479">
        <ele>523.2</ele>
        <time>2014-04-06T10:42:35Z</time>
      </trkpt>
      <trkpt lat="43.444170" lon="2.095607">
        <ele>522.7</ele>
        <time>2014-04-06T10:42:43Z</time>
      </trkpt>
      <trkpt lat="43.444159" lon="2.095744">
        <ele>522.8</ele>
        <time>2014-04-06T10:42:52Z</time>
      </trkpt>
      <trkpt lat="43.444161" lon="2.095917">
        <ele>523.5</ele>
        <time>2014-04-06T10:43:01Z</time>
      </trkpt>
      <trkpt lat="43.444145" lon="2.096059">
        <ele>524.4</ele>
        <time>2014-04-06T10:43:10Z</time>
      </trkpt>
      <trkpt lat="43.444135" lon="2.096202">
        <ele>525.3</ele>
        <time>2014-04-06T10:43:19Z</time>
      </trkpt>
      <trkpt lat="43.444135" lon="2.096356">
        <ele>526.3</ele>
        <time>2014-04-06T10:43:28Z</time>
      </trkpt>
      <trkpt lat="43.444121" lon="2.096518">
        <ele>527.7</ele>
        <time>2014-04-06T10:43:38Z</time>
      </trkpt>
      <trkpt lat="43.444098" lon="2.096650">
        <ele>528.9</ele>
        <time>2014-04-06T10:43:48Z</time>
      </trkpt>
      <trkpt lat="43.444024" lon="2.096717">
        <ele>530.4</ele>
        <time>2014-04-06T10:43:57Z</time>
      </trkpt>
      <trkpt lat="43.443904" lon="2.096673">
        <ele>531.5</ele>
        <time>2014-04-06T10:44:06Z</time>
      </trkpt>
      <trkpt lat="43.443801" lon="2.096615">
        <ele>532.7</ele>
        <time>2014-04-06T10:44:15Z</time>
      </trkpt>
      <trkpt lat="43.443692" lon="2.096576">
        <ele>534.2</ele>
        <time>2014-04-06T10:44:25Z</time>
      </trkpt>
      <trkpt lat="43.443565" lon="2.096552">
        <ele>535.8</ele>
        <time>2014-04-06T10:44:36Z</time>
      </trkpt>
      <trkpt lat="43.443464" lon="2.096529">
        <ele>538.1</ele>
        <time>2014-04-06T10:44:46Z</time>
      </trkpt>
      <trkpt lat="43.443349" lon="2.096504">
        <ele>540.2</ele>
        <time>2014-04-06T10:44:57Z</time>
      </trkpt>
      <trkpt lat="43.443244" lon="2.096481">
        <ele>541.5</ele>
        <time>2014-04-06T10:45:07Z</time>
      </trkpt>
      <trkpt lat="43.443153" lon="2.096493">
        <ele>543.7</ele>
        <time>2014-04-06T10:45:16Z</time>
      </trkpt>
      <trkpt lat="43.443039" lon="2.096494">
        <ele>545.0</ele>
        <time>2014-04-06T10:45:26Z</time>
      </trkpt>
      <trkpt lat="43.442922" lon="2.096429">
        <ele>547.0</ele>
        <time>2014-04-06T10:45:37Z</time>
      </trkpt>
      <trkpt lat="43.442862" lon="2.096284">
        <ele>549.4</ele>
        <time>2014-04-06T10:45:49Z</time>
      </trkpt>
      <trkpt lat="43.442849" lon="2.096094">
        <ele>552.5</ele>
        <time>2014-04-06T10:46:03Z</time>
      </trkpt>
      <trkpt lat="43.442837" lon="2.095893">
        <ele>555.2</ele>
        <time>2014-04-06T10:46:19Z</time>
      </trkpt>
      <trkpt lat="43.442797" lon="2.095710">
        <ele>556.8</ele>
        <time>2014-04-06T10:46:33Z</time>
      </trkpt>
      <trkpt lat="43.442694" lon="2.095670">
        <ele>557.9</ele>
        <time>2014-04-06T10:46:50Z</time>
        <name>Pistre</name>
      </trkpt>
      <trkpt lat="43.442649" lon="2.095893">
        <ele>559.2</ele>
        <time>2014-04-06T10:47:03Z</time>
      </trkpt>
      <trkpt lat="43.442610" lon="2.096085">
        <ele>559.8</ele>
        <time>2014-04-06T10:47:13Z</time>
      </trkpt>
      <trkpt lat="43.442553" lon="2.096320">
        <ele>561.2</ele>
        <time>2014-04-06T10:47:28Z</time>
      </trkpt>
      <trkpt lat="43.442486" lon="2.096498">
        <ele>563.0</ele>
        <time>2014-04-06T10:47:44Z</time>
      </trkpt>
      <trkpt lat="43.442432" lon="2.096660">
        <ele>564.1</ele>
        <time>2014-04-06T10:47:59Z</time>
      </trkpt>
      <trkpt lat="43.442418" lon="2.096873">
        <ele>565.1</ele>
        <time>2014-04-06T10:48:14Z</time>
      </trkpt>
      <trkpt lat="43.442423" lon="2.097099">
        <ele>566.1</ele>
        <time>2014-04-06T10:48:26Z</time>
      </trkpt>
      <trkpt lat="43.442405" lon="2.097244">
        <ele>567.4</ele>
        <time>2014-04-06T10:48:38Z</time>
      </trkpt>
      <trkpt lat="43.442396" lon="2.097407">
        <ele>568.4</ele>
        <time>2014-04-06T10:48:49Z</time>
      </trkpt>
      <trkpt lat="43.442357" lon="2.097569">
        <ele>569.7</ele>
        <time>2014-04-06T10:49:00Z</time>
      </trkpt>
      <trkpt lat="43.442314" lon="2.097763">
        <ele>571.1</ele>
        <time>2014-04-06T10:49:11Z</time>
      </trkpt>
      <trkpt lat="43.442255" lon="2.097910">
        <ele>572.6</ele>
        <time>2014-04-06T10:49:21Z</time>
      </trkpt>
      <trkpt lat="43.442203" lon="2.098042">
        <ele>574.1</ele>
        <time>2014-04-06T10:49:29Z</time>
      </trkpt>
      <trkpt lat="43.442147" lon="2.098195">
        <ele>575.7</ele>
        <time>2014-04-06T10:49:39Z</time>
      </trkpt>
      <trkpt lat="43.442098" lon="2.098338">
        <ele>577.3</ele>
        <time>2014-04-06T10:49:48Z</time>
      </trkpt>
      <trkpt lat="43.442031" lon="2.098479">
        <ele>579.4</ele>
        <time>2014-04-06T10:50:00Z</time>
      </trkpt>
      <trkpt lat="43.441996" lon="2.098610">
        <ele>581.1</ele>
        <time>2014-04-06T10:50:09Z</time>
      </trkpt>
      <trkpt lat="43.441941" lon="2.098759">
        <ele>582.7</ele>
        <time>2014-04-06T10:50:20Z</time>
      </trkpt>
      <trkpt lat="43.441887" lon="2.098903">
        <ele>584.3</ele>
        <time>2014-04-06T10:50:31Z</time>
      </trkpt>
      <trkpt lat="43.441830" lon="2.099051">
        <ele>585.7</ele>
        <time>2014-04-06T10:50:42Z</time>
      </trkpt>
      <trkpt lat="43.441766" lon="2.099185">
        <ele>587.1</ele>
        <time>2014-04-06T10:50:54Z</time>
      </trkpt>
      <trkpt lat="43.441713" lon="2.099302">
        <ele>588.3</ele>
        <time>2014-04-06T10:51:05Z</time>
      </trkpt>
      <trkpt lat="43.441676" lon="2.099437">
        <ele>588.4</ele>
        <time>2014-04-06T10:51:22Z</time>
      </trkpt>
      <trkpt lat="43.441626" lon="2.099535">
        <ele>590.4</ele>
        <time>2014-04-06T10:51:48Z</time>
      </trkpt>
      <trkpt lat="43.441552" lon="2.099644">
        <ele>591.9</ele>
        <time>2014-04-06T10:52:00Z</time>
      </trkpt>
      <trkpt lat="43.441477" lon="2.099739">
        <ele>593.1</ele>
        <time>2014-04-06T10:52:12Z</time>
      </trkpt>
      <trkpt lat="43.441456" lon="2.099825">
        <ele>593.7</ele>
        <time>2014-04-06T10:52:40Z</time>
      </trkpt>
      <trkpt lat="43.441412" lon="2.099835">
        <ele>596.4</ele>
        <time>2014-04-06T10:53:43Z</time>
      </trkpt>
      <trkpt lat="43.441381" lon="2.099821">
        <ele>597.3</ele>
        <time>2014-04-06T10:54:25Z</time>
      </trkpt>
      <trkpt lat="43.441313" lon="2.099737">
        <ele>598.7</ele>
        <time>2014-04-06T10:54:46Z</time>
      </trkpt>
      <trkpt lat="43.441199" lon="2.099706">
        <ele>601.9</ele>
        <time>2014-04-06T10:55:12Z</time>
      </trkpt>
      <trkpt lat="43.441141" lon="2.099630">
        <ele>605.7</ele>
        <time>2014-04-06T10:55:37Z</time>
      </trkpt>
      <trkpt lat="43.441043" lon="2.099585">
        <ele>607.4</ele>
        <time>2014-04-06T10:55:59Z</time>
      </trkpt>
      <trkpt lat="43.440956" lon="2.099609">
        <ele>607.5</ele>
        <time>2014-04-06T10:56:11Z</time>
      </trkpt>
      <trkpt lat="43.440951" lon="2.099464">
        <ele>606.8</ele>
        <time>2014-04-06T10:56:22Z</time>
      </trkpt>
      <trkpt lat="43.440997" lon="2.099294">
        <ele>606.4</ele>
        <time>2014-04-06T10:56:37Z</time>
      </trkpt>
      <trkpt lat="43.440936" lon="2.099256">
        <ele>606.4</ele>
        <time>2014-04-06T10:58:30Z</time>
      </trkpt>
      <trkpt lat="43.440827" lon="2.099264">
        <ele>603.3</ele>
        <time>2014-04-06T10:58:49Z</time>
      </trkpt>
      <trkpt lat="43.440738" lon="2.099276">
        <ele>602.5</ele>
        <time>2014-04-06T10:59:04Z</time>
      </trkpt>
      <trkpt lat="43.440668" lon="2.099363">
        <ele>601.3</ele>
        <time>2014-04-06T10:59:14Z</time>
      </trkpt>
      <trkpt lat="43.440598" lon="2.099462">
        <ele>600.2</ele>
        <time>2014-04-06T10:59:24Z</time>
      </trkpt>
      <trkpt lat="43.440537" lon="2.099584">
        <ele>599.5</ele>
        <time>2014-04-06T10:59:35Z</time>
      </trkpt>
      <trkpt lat="43.440474" lon="2.099683">
        <ele>598.5</ele>
        <time>2014-04-06T10:59:44Z</time>
      </trkpt>
      <trkpt lat="43.440422" lon="2.099809">
        <ele>597.8</ele>
        <time>2014-04-06T11:00:00Z</time>
      </trkpt>
      <trkpt lat="43.440374" lon="2.099926">
        <ele>597.2</ele>
        <time>2014-04-06T11:00:11Z</time>
      </trkpt>
      <trkpt lat="43.440332" lon="2.100046">
        <ele>596.5</ele>
        <time>2014-04-06T11:00:21Z</time>
      </trkpt>
      <trkpt lat="43.440308" lon="2.100200">
        <ele>595.7</ele>
        <time>2014-04-06T11:00:31Z</time>
      </trkpt>
      <trkpt lat="43.440270" lon="2.100316">
        <ele>595.0</ele>
        <time>2014-04-06T11:00:42Z</time>
      </trkpt>
      <trkpt lat="43.440249" lon="2.100462">
        <ele>594.1</ele>
        <time>2014-04-06T11:00:51Z</time>
      </trkpt>
      <trkpt lat="43.440209" lon="2.100590">
        <ele>593.4</ele>
        <time>2014-04-06T11:01:01Z</time>
      </trkpt>
      <trkpt lat="43.440158" lon="2.100701">
        <ele>592.1</ele>
        <time>2014-04-06T11:01:12Z</time>
      </trkpt>
      <trkpt lat="43.440117" lon="2.100818">
        <ele>590.4</ele>
        <time>2014-04-06T11:01:23Z</time>
      </trkpt>
      <trkpt lat="43.440064" lon="2.100937">
        <ele>588.9</ele>
        <time>2014-04-06T11:01:34Z</time>
      </trkpt>
      <trkpt lat="43.440003" lon="2.101046">
        <ele>587.7</ele>
        <time>2014-04-06T11:01:44Z</time>
      </trkpt>
      <trkpt lat="43.439940" lon="2.101156">
        <ele>586.7</ele>
        <time>2014-04-06T11:01:55Z</time>
      </trkpt>
      <trkpt lat="43.439869" lon="2.101266">
        <ele>585.3</ele>
        <time>2014-04-06T11:02:06Z</time>
      </trkpt>
      <trkpt lat="43.439817" lon="2.101397">
        <ele>584.3</ele>
        <time>2014-04-06T11:02:19Z</time>
      </trkpt>
      <trkpt lat="43.439760" lon="2.101527">
        <ele>582.9</ele>
        <time>2014-04-06T11:02:32Z</time>
      </trkpt>
      <trkpt lat="43.439699" lon="2.101671">
        <ele>581.5</ele>
        <time>2014-04-06T11:02:46Z</time>
      </trkpt>
      <trkpt lat="43.439631" lon="2.101773">
        <ele>579.2</ele>
        <time>2014-04-06T11:03:00Z</time>
      </trkpt>
      <trkpt lat="43.439563" lon="2.101883">
        <ele>577.6</ele>
        <time>2014-04-06T11:03:15Z</time>
      </trkpt>
      <trkpt lat="43.439498" lon="2.102004">
        <ele>576.0</ele>
        <time>2014-04-06T11:03:28Z</time>
      </trkpt>
      <trkpt lat="43.439425" lon="2.102114">
        <ele>575.0</ele>
        <time>2014-04-06T11:03:40Z</time>
      </trkpt>
      <trkpt lat="43.439373" lon="2.102249">
        <ele>574.1</ele>
        <time>2014-04-06T11:03:54Z</time>
      </trkpt>
      <trkpt lat="43.439311" lon="2.102350">
        <ele>573.6</ele>
        <time>2014-04-06T11:04:05Z</time>
      </trkpt>
      <trkpt lat="43.439243" lon="2.102453">
        <ele>572.3</ele>
        <time>2014-04-06T11:04:17Z</time>
      </trkpt>
      <trkpt lat="43.439180" lon="2.102553">
        <ele>571.6</ele>
        <time>2014-04-06T11:04:28Z</time>
      </trkpt>
      <trkpt lat="43.439128" lon="2.102678">
        <ele>570.8</ele>
        <time>2014-04-06T11:04:38Z</time>
      </trkpt>
      <trkpt lat="43.439061" lon="2.102769">
        <ele>570.5</ele>
        <time>2014-04-06T11:04:49Z</time>
      </trkpt>
      <trkpt lat="43.438990" lon="2.102870">
        <ele>569.8</ele>
        <time>2014-04-06T11:05:00Z</time>
      </trkpt>
      <trkpt lat="43.438931" lon="2.102973">
        <ele>569.1</ele>
        <time>2014-04-06T11:05:11Z</time>
      </trkpt>
      <trkpt lat="43.438877" lon="2.103071">
        <ele>568.2</ele>
        <time>2014-04-06T11:05:21Z</time>
      </trkpt>
      <trkpt lat="43.438819" lon="2.103172">
        <ele>567.5</ele>
        <time>2014-04-06T11:05:31Z</time>
      </trkpt>
      <trkpt lat="43.438754" lon="2.103275">
        <ele>567.0</ele>
        <time>2014-04-06T11:05:41Z</time>
      </trkpt>
      <trkpt lat="43.438686" lon="2.103405">
        <ele>566.1</ele>
        <time>2014-04-06T11:05:52Z</time>
      </trkpt>
      <trkpt lat="43.438648" lon="2.103511">
        <ele>565.0</ele>
        <time>2014-04-06T11:06:03Z</time>
      </trkpt>
      <trkpt lat="43.438574" lon="2.103584">
        <ele>564.0</ele>
        <time>2014-04-06T11:06:14Z</time>
      </trkpt>
      <trkpt lat="43.438434" lon="2.103675">
        <ele>563.6</ele>
        <time>2014-04-06T11:06:31Z</time>
        <name>Ruisseau d Orival</name>
      </trkpt>
      <trkpt lat="43.438425" lon="2.103579">
        <ele>564.0</ele>
        <time>2014-04-06T11:06:49Z</time>
      </trkpt>
      <trkpt lat="43.438383" lon="2.103431">
        <ele>563.7</ele>
        <time>2014-04-06T11:07:03Z</time>
      </trkpt>
      <trkpt lat="43.438342" lon="2.103403">
        <ele>565.2</ele>
        <time>2014-04-06T11:09:36Z</time>
      </trkpt>
      <trkpt lat="43.438284" lon="2.103570">
        <ele>567.5</ele>
        <time>2014-04-06T11:09:51Z</time>
      </trkpt>
      <trkpt lat="43.438266" lon="2.103714">
        <ele>568.4</ele>
        <time>2014-04-06T11:10:08Z</time>
      </trkpt>
      <trkpt lat="43.438199" lon="2.103802">
        <ele>569.0</ele>
        <time>2014-04-06T11:10:26Z</time>
      </trkpt>
      <trkpt lat="43.438119" lon="2.103905">
        <ele>570.2</ele>
        <time>2014-04-06T11:10:49Z</time>
      </trkpt>
      <trkpt lat="43.438075" lon="2.103964">
        <ele>572.8</ele>
        <time>2014-04-06T11:11:09Z</time>
      </trkpt>
      <trkpt lat="43.438029" lon="2.104139">
        <ele>575.8</ele>
        <time>2014-04-06T11:11:24Z</time>
      </trkpt>
      <trkpt lat="43.437974" lon="2.104291">
        <ele>577.5</ele>
        <time>2014-04-06T11:11:37Z</time>
      </trkpt>
      <trkpt lat="43.437916" lon="2.104382">
        <ele>579.8</ele>
        <time>2014-04-06T11:11:53Z</time>
      </trkpt>
      <trkpt lat="43.437831" lon="2.104432">
        <ele>581.5</ele>
        <time>2014-04-06T11:12:07Z</time>
      </trkpt>
      <trkpt lat="43.437785" lon="2.104571">
        <ele>584.0</ele>
        <time>2014-04-06T11:12:26Z</time>
      </trkpt>
      <trkpt lat="43.437702" lon="2.104764">
        <ele>585.0</ele>
        <time>2014-04-06T11:12:40Z</time>
      </trkpt>
      <trkpt lat="43.437614" lon="2.104901">
        <ele>585.8</ele>
        <time>2014-04-06T11:12:51Z</time>
      </trkpt>
      <trkpt lat="43.437567" lon="2.105063">
        <ele>587.0</ele>
        <time>2014-04-06T11:13:06Z</time>
      </trkpt>
      <trkpt lat="43.437472" lon="2.105166">
        <ele>588.4</ele>
        <time>2014-04-06T11:13:19Z</time>
      </trkpt>
      <trkpt lat="43.437308" lon="2.105244">
        <ele>595.1</ele>
        <time>2014-04-06T11:15:56Z</time>
      </trkpt>
      <trkpt lat="43.437201" lon="2.105301">
        <ele>598.2</ele>
        <time>2014-04-06T11:16:15Z</time>
      </trkpt>
      <trkpt lat="43.437109" lon="2.105333">
        <ele>601.7</ele>
        <time>2014-04-06T11:16:30Z</time>
      </trkpt>
      <trkpt lat="43.437012" lon="2.105362">
        <ele>606.9</ele>
        <time>2014-04-06T11:16:50Z</time>
      </trkpt>
      <trkpt lat="43.436900" lon="2.105436">
        <ele>610.3</ele>
        <time>2014-04-06T11:17:06Z</time>
      </trkpt>
      <trkpt lat="43.436757" lon="2.105533">
        <ele>614.5</ele>
        <time>2014-04-06T11:17:26Z</time>
      </trkpt>
      <trkpt lat="43.436724" lon="2.105652">
        <ele>617.0</ele>
        <time>2014-04-06T11:17:43Z</time>
      </trkpt>
      <trkpt lat="43.436625" lon="2.105676">
        <ele>620.8</ele>
        <time>2014-04-06T11:17:59Z</time>
      </trkpt>
      <trkpt lat="43.436546" lon="2.105725">
        <ele>622.5</ele>
        <time>2014-04-06T11:18:11Z</time>
      </trkpt>
      <trkpt lat="43.436436" lon="2.105860">
        <ele>625.7</ele>
        <time>2014-04-06T11:18:27Z</time>
      </trkpt>
      <trkpt lat="43.436346" lon="2.105890">
        <ele>628.8</ele>
        <time>2014-04-06T11:18:41Z</time>
      </trkpt>
      <trkpt lat="43.436269" lon="2.105914">
        <ele>633.2</ele>
        <time>2014-04-06T11:19:05Z</time>
      </trkpt>
      <trkpt lat="43.436173" lon="2.105939">
        <ele>636.3</ele>
        <time>2014-04-06T11:19:25Z</time>
      </trkpt>
      <trkpt lat="43.436091" lon="2.105820">
        <ele>638.5</ele>
        <time>2014-04-06T11:19:41Z</time>
      </trkpt>
      <trkpt lat="43.436088" lon="2.105672">
        <ele>641.4</ele>
        <time>2014-04-06T11:19:56Z</time>
      </trkpt>
      <trkpt lat="43.436053" lon="2.105648">
        <ele>641.5</ele>
        <time>2014-04-06T11:20:11Z</time>
      </trkpt>
      <trkpt lat="43.436075" lon="2.105600">
        <ele>642.0</ele>
        <time>2014-04-06T11:20:34Z</time>
      </trkpt>
      <trkpt lat="43.436057" lon="2.105514">
        <ele>641.7</ele>
        <time>2014-04-06T11:21:00Z</time>
        <name>Route D45</name>
      </trkpt>
      <trkpt lat="43.435970" lon="2.105388">
        <ele>642.9</ele>
        <time>2014-04-06T11:21:15Z</time>
      </trkpt>
      <trkpt lat="43.435974" lon="2.105216">
        <ele>645.1</ele>
        <time>2014-04-06T11:21:26Z</time>
      </trkpt>
      <trkpt lat="43.435941" lon="2.105002">
        <ele>646.0</ele>
        <time>2014-04-06T11:21:41Z</time>
      </trkpt>
      <trkpt lat="43.435922" lon="2.104804">
        <ele>648.0</ele>
        <time>2014-04-06T11:21:53Z</time>
      </trkpt>
      <trkpt lat="43.435910" lon="2.104599">
        <ele>649.8</ele>
        <time>2014-04-06T11:22:06Z</time>
      </trkpt>
      <trkpt lat="43.435908" lon="2.104372">
        <ele>651.9</ele>
        <time>2014-04-06T11:22:23Z</time>
      </trkpt>
      <trkpt lat="43.435897" lon="2.104168">
        <ele>653.7</ele>
        <time>2014-04-06T11:22:36Z</time>
      </trkpt>
      <trkpt lat="43.435854" lon="2.104006">
        <ele>655.2</ele>
        <time>2014-04-06T11:22:48Z</time>
      </trkpt>
      <trkpt lat="43.435809" lon="2.103811">
        <ele>657.0</ele>
        <time>2014-04-06T11:23:03Z</time>
      </trkpt>
      <trkpt lat="43.435783" lon="2.103638">
        <ele>658.0</ele>
        <time>2014-04-06T11:23:16Z</time>
      </trkpt>
      <trkpt lat="43.435732" lon="2.103455">
        <ele>658.7</ele>
        <time>2014-04-06T11:23:30Z</time>
      </trkpt>
      <trkpt lat="43.435660" lon="2.103317">
        <ele>659.3</ele>
        <time>2014-04-06T11:23:46Z</time>
      </trkpt>
      <trkpt lat="43.435603" lon="2.103176">
        <ele>659.3</ele>
        <time>2014-04-06T11:24:01Z</time>
      </trkpt>
      <trkpt lat="43.435578" lon="2.102998">
        <ele>660.2</ele>
        <time>2014-04-06T11:24:14Z</time>
      </trkpt>
      <trkpt lat="43.435614" lon="2.102797">
        <ele>661.1</ele>
        <time>2014-04-06T11:24:28Z</time>
      </trkpt>
      <trkpt lat="43.435625" lon="2.102582">
        <ele>663.3</ele>
        <time>2014-04-06T11:24:44Z</time>
      </trkpt>
      <trkpt lat="43.435591" lon="2.102419">
        <ele>665.8</ele>
        <time>2014-04-06T11:24:58Z</time>
      </trkpt>
      <trkpt lat="43.435577" lon="2.102246">
        <ele>667.9</ele>
        <time>2014-04-06T11:25:12Z</time>
      </trkpt>
      <trkpt lat="43.435554" lon="2.102050">
        <ele>670.2</ele>
        <time>2014-04-06T11:25:28Z</time>
      </trkpt>
      <trkpt lat="43.435576" lon="2.101880">
        <ele>671.4</ele>
        <time>2014-04-06T11:25:54Z</time>
      </trkpt>
      <trkpt lat="43.435502" lon="2.101778">
        <ele>674.1</ele>
        <time>2014-04-06T11:26:26Z</time>
      </trkpt>
      <trkpt lat="43.435443" lon="2.101610">
        <ele>675.6</ele>
        <time>2014-04-06T11:26:39Z</time>
      </trkpt>
      <trkpt lat="43.435350" lon="2.101454">
        <ele>676.5</ele>
        <time>2014-04-06T11:26:52Z</time>
      </trkpt>
      <trkpt lat="43.435231" lon="2.101344">
        <ele>677.4</ele>
        <time>2014-04-06T11:27:06Z</time>
      </trkpt>
      <trkpt lat="43.435132" lon="2.101219">
        <ele>678.2</ele>
        <time>2014-04-06T11:27:20Z</time>
      </trkpt>
      <trkpt lat="43.435033" lon="2.101125">
        <ele>679.0</ele>
        <time>2014-04-06T11:27:36Z</time>
      </trkpt>
      <trkpt lat="43.434969" lon="2.100929">
        <ele>679.4</ele>
        <time>2014-04-06T11:27:54Z</time>
      </trkpt>
      <trkpt lat="43.434959" lon="2.100766">
        <ele>679.2</ele>
        <time>2014-04-06T11:28:07Z</time>
      </trkpt>
      <trkpt lat="43.435028" lon="2.100562">
        <ele>678.8</ele>
        <time>2014-04-06T11:28:25Z</time>
      </trkpt>
      <trkpt lat="43.435050" lon="2.100425">
        <ele>678.5</ele>
        <time>2014-04-06T11:28:43Z</time>
      </trkpt>
      <trkpt lat="43.435002" lon="2.100286">
        <ele>678.9</ele>
        <time>2014-04-06T11:28:55Z</time>
      </trkpt>
      <trkpt lat="43.435029" lon="2.100202">
        <ele>679.0</ele>
        <time>2014-04-06T11:29:42Z</time>
      </trkpt>
      <trkpt lat="43.434968" lon="2.100145">
        <ele>679.0</ele>
        <time>2014-04-06T11:30:07Z</time>
      </trkpt>
      <trkpt lat="43.434898" lon="2.100015">
        <ele>679.1</ele>
        <time>2014-04-06T11:30:22Z</time>
      </trkpt>
      <trkpt lat="43.434756" lon="2.099862">
        <ele>679.7</ele>
        <time>2014-04-06T11:30:35Z</time>
      </trkpt>
      <trkpt lat="43.434734" lon="2.099723">
        <ele>679.6</ele>
        <time>2014-04-06T11:30:42Z</time>
      </trkpt>
      <trkpt lat="43.434729" lon="2.099546">
        <ele>679.4</ele>
        <time>2014-04-06T11:30:51Z</time>
      </trkpt>
      <trkpt lat="43.434749" lon="2.099410">
        <ele>678.8</ele>
        <time>2014-04-06T11:33:39Z</time>
      </trkpt>
      <trkpt lat="43.434724" lon="2.099243">
        <ele>678.8</ele>
        <time>2014-04-06T11:33:55Z</time>
      </trkpt>
      <trkpt lat="43.434699" lon="2.099082">
        <ele>678.9</ele>
        <time>2014-04-06T11:34:07Z</time>
      </trkpt>
      <trkpt lat="43.434635" lon="2.098912">
        <ele>678.9</ele>
        <time>2014-04-06T11:34:23Z</time>
      </trkpt>
      <trkpt lat="43.434573" lon="2.098752">
        <ele>677.9</ele>
        <time>2014-04-06T11:34:38Z</time>
      </trkpt>
      <trkpt lat="43.434502" lon="2.098589">
        <ele>676.9</ele>
        <time>2014-04-06T11:34:56Z</time>
      </trkpt>
      <trkpt lat="43.434426" lon="2.098491">
        <ele>676.1</ele>
        <time>2014-04-06T11:35:12Z</time>
      </trkpt>
      <trkpt lat="43.434301" lon="2.098455">
        <ele>676.3</ele>
        <time>2014-04-06T11:35:27Z</time>
      </trkpt>
      <trkpt lat="43.434161" lon="2.098450">
        <ele>675.2</ele>
        <time>2014-04-06T11:35:44Z</time>
      </trkpt>
      <trkpt lat="43.434082" lon="2.098490">
        <ele>676.0</ele>
        <time>2014-04-06T11:35:59Z</time>
      </trkpt>
      <trkpt lat="43.434010" lon="2.098467">
        <ele>674.8</ele>
        <time>2014-04-06T11:36:19Z</time>
      </trkpt>
      <trkpt lat="43.433940" lon="2.098327">
        <ele>674.1</ele>
        <time>2014-04-06T11:36:35Z</time>
      </trkpt>
      <trkpt lat="43.433822" lon="2.098390">
        <ele>675.7</ele>
        <time>2014-04-06T11:36:53Z</time>
      </trkpt>
      <trkpt lat="43.433717" lon="2.098389">
        <ele>675.5</ele>
        <time>2014-04-06T11:37:06Z</time>
      </trkpt>
      <trkpt lat="43.433674" lon="2.098297">
        <ele>674.6</ele>
        <time>2014-04-06T11:37:28Z</time>
      </trkpt>
      <trkpt lat="43.433542" lon="2.098232">
        <ele>675.0</ele>
        <time>2014-04-06T11:37:47Z</time>
      </trkpt>
      <trkpt lat="43.433410" lon="2.098214">
        <ele>675.7</ele>
        <time>2014-04-06T11:38:06Z</time>
      </trkpt>
      <trkpt lat="43.433305" lon="2.098104">
        <ele>675.5</ele>
        <time>2014-04-06T11:38:20Z</time>
      </trkpt>
      <trkpt lat="43.433238" lon="2.097975">
        <ele>674.8</ele>
        <time>2014-04-06T11:38:36Z</time>
      </trkpt>
      <trkpt lat="43.433201" lon="2.097822">
        <ele>675.1</ele>
        <time>2014-04-06T11:38:49Z</time>
      </trkpt>
      <trkpt lat="43.433170" lon="2.097654">
        <ele>675.6</ele>
        <time>2014-04-06T11:39:00Z</time>
      </trkpt>
      <trkpt lat="43.433106" lon="2.097513">
        <ele>675.7</ele>
        <time>2014-04-06T11:39:15Z</time>
      </trkpt>
      <trkpt lat="43.433076" lon="2.097481">
        <ele>675.8</ele>
        <time>2014-04-06T11:40:04Z</time>
      </trkpt>
      <trkpt lat="43.433033" lon="2.097347">
        <ele>675.6</ele>
        <time>2014-04-06T11:40:25Z</time>
      </trkpt>
      <trkpt lat="43.432994" lon="2.097183">
        <ele>676.9</ele>
        <time>2014-04-06T11:40:37Z</time>
      </trkpt>
      <trkpt lat="43.432959" lon="2.097011">
        <ele>678.1</ele>
        <time>2014-04-06T11:40:50Z</time>
      </trkpt>
      <trkpt lat="43.432921" lon="2.096858">
        <ele>679.2</ele>
        <time>2014-04-06T11:41:03Z</time>
      </trkpt>
      <trkpt lat="43.432878" lon="2.096690">
        <ele>679.9</ele>
        <time>2014-04-06T11:41:14Z</time>
      </trkpt>
      <trkpt lat="43.432867" lon="2.096510">
        <ele>680.2</ele>
        <time>2014-04-06T11:41:27Z</time>
      </trkpt>
      <trkpt lat="43.432880" lon="2.096314">
        <ele>679.8</ele>
        <time>2014-04-06T11:41:39Z</time>
      </trkpt>
      <trkpt lat="43.432913" lon="2.096088">
        <ele>679.9</ele>
        <time>2014-04-06T11:41:53Z</time>
      </trkpt>
      <trkpt lat="43.432930" lon="2.095908">
        <ele>679.6</ele>
        <time>2014-04-06T11:42:10Z</time>
      </trkpt>
      <trkpt lat="43.432914" lon="2.095759">
        <ele>679.6</ele>
        <time>2014-04-06T11:42:43Z</time>
      </trkpt>
      <trkpt lat="43.432837" lon="2.095579">
        <ele>680.2</ele>
        <time>2014-04-06T11:43:00Z</time>
      </trkpt>
      <trkpt lat="43.432766" lon="2.095402">
        <ele>680.7</ele>
        <time>2014-04-06T11:43:19Z</time>
      </trkpt>
      <trkpt lat="43.432711" lon="2.095244">
        <ele>680.2</ele>
        <time>2014-04-06T11:43:32Z</time>
      </trkpt>
      <trkpt lat="43.432740" lon="2.095071">
        <ele>680.2</ele>
        <time>2014-04-06T11:43:48Z</time>
      </trkpt>
      <trkpt lat="43.432736" lon="2.094864">
        <ele>679.3</ele>
        <time>2014-04-06T11:44:06Z</time>
      </trkpt>
      <trkpt lat="43.432773" lon="2.094649">
        <ele>679.0</ele>
        <time>2014-04-06T11:44:23Z</time>
      </trkpt>
      <trkpt lat="43.432862" lon="2.094535">
        <ele>678.5</ele>
        <time>2014-04-06T11:44:39Z</time>
      </trkpt>
      <trkpt lat="43.432897" lon="2.094345">
        <ele>677.4</ele>
        <time>2014-04-06T11:45:00Z</time>
      </trkpt>
      <trkpt lat="43.432899" lon="2.094197">
        <ele>676.7</ele>
        <time>2014-04-06T11:45:53Z</time>
      </trkpt>
      <trkpt lat="43.432856" lon="2.094038">
        <ele>675.5</ele>
        <time>2014-04-06T11:47:15Z</time>
      </trkpt>
      <trkpt lat="43.432803" lon="2.093879">
        <ele>673.8</ele>
        <time>2014-04-06T11:47:29Z</time>
      </trkpt>
      <trkpt lat="43.432754" lon="2.093720">
        <ele>672.4</ele>
        <time>2014-04-06T11:47:44Z</time>
      </trkpt>
      <trkpt lat="43.432694" lon="2.093578">
        <ele>671.1</ele>
        <time>2014-04-06T11:47:59Z</time>
      </trkpt>
      <trkpt lat="43.432637" lon="2.093380">
        <ele>669.5</ele>
        <time>2014-04-06T11:48:12Z</time>
      </trkpt>
      <trkpt lat="43.432567" lon="2.093199">
        <ele>667.5</ele>
        <time>2014-04-06T11:48:29Z</time>
      </trkpt>
      <trkpt lat="43.432505" lon="2.093069">
        <ele>666.6</ele>
        <time>2014-04-06T11:48:46Z</time>
      </trkpt>
      <trkpt lat="43.432373" lon="2.092982">
        <ele>665.0</ele>
        <time>2014-04-06T11:49:02Z</time>
      </trkpt>
      <trkpt lat="43.432304" lon="2.092890">
        <ele>663.9</ele>
        <time>2014-04-06T11:49:17Z</time>
      </trkpt>
      <trkpt lat="43.432233" lon="2.092804">
        <ele>663.2</ele>
        <time>2014-04-06T11:49:31Z</time>
      </trkpt>
      <trkpt lat="43.432145" lon="2.092708">
        <ele>662.9</ele>
        <time>2014-04-06T11:49:47Z</time>
      </trkpt>
      <trkpt lat="43.432069" lon="2.092768">
        <ele>662.5</ele>
        <time>2014-04-06T11:50:07Z</time>
      </trkpt>
      <trkpt lat="43.432077" lon="2.092734">
        <ele>662.8</ele>
        <time>2014-04-06T11:50:51Z</time>
      </trkpt>
      <trkpt lat="43.432010" lon="2.092745">
        <ele>662.0</ele>
        <time>2014-04-06T11:51:03Z</time>
      </trkpt>
      <trkpt lat="43.431892" lon="2.092687">
        <ele>660.8</ele>
        <time>2014-04-06T11:51:16Z</time>
      </trkpt>
      <trkpt lat="43.431812" lon="2.092514">
        <ele>658.6</ele>
        <time>2014-04-06T11:51:35Z</time>
      </trkpt>
      <trkpt lat="43.431765" lon="2.092403">
        <ele>656.3</ele>
        <time>2014-04-06T11:51:55Z</time>
      </trkpt>
      <trkpt lat="43.431749" lon="2.092280">
        <ele>655.8</ele>
        <time>2014-04-06T11:52:09Z</time>
      </trkpt>
      <trkpt lat="43.431709" lon="2.092171">
        <ele>653.3</ele>
        <time>2014-04-06T11:52:33Z</time>
      </trkpt>
      <trkpt lat="43.431698" lon="2.092045">
        <ele>651.2</ele>
        <time>2014-04-06T11:52:52Z</time>
      </trkpt>
      <trkpt lat="43.431637" lon="2.091928">
        <ele>649.1</ele>
        <time>2014-04-06T11:53:11Z</time>
      </trkpt>
      <trkpt lat="43.431580" lon="2.091837">
        <ele>646.9</ele>
        <time>2014-04-06T11:53:30Z</time>
      </trkpt>
      <trkpt lat="43.431535" lon="2.091732">
        <ele>644.3</ele>
        <time>2014-04-06T11:53:49Z</time>
      </trkpt>
      <trkpt lat="43.431505" lon="2.091661">
        <ele>640.8</ele>
        <time>2014-04-06T11:54:42Z</time>
      </trkpt>
      <trkpt lat="43.431450" lon="2.091589">
        <ele>641.3</ele>
        <time>2014-04-06T11:55:24Z</time>
      </trkpt>
      <trkpt lat="43.431424" lon="2.091484">
        <ele>639.3</ele>
        <time>2014-04-06T11:55:53Z</time>
      </trkpt>
      <trkpt lat="43.431379" lon="2.091344">
        <ele>637.1</ele>
        <time>2014-04-06T11:56:13Z</time>
      </trkpt>
      <trkpt lat="43.431343" lon="2.091212">
        <ele>634.0</ele>
        <time>2014-04-06T11:56:35Z</time>
      </trkpt>
      <trkpt lat="43.431321" lon="2.091100">
        <ele>631.9</ele>
        <time>2014-04-06T11:56:51Z</time>
      </trkpt>
      <trkpt lat="43.431275" lon="2.090904">
        <ele>628.8</ele>
        <time>2014-04-06T11:57:08Z</time>
      </trkpt>
      <trkpt lat="43.431261" lon="2.090772">
        <ele>626.8</ele>
        <time>2014-04-06T11:57:29Z</time>
      </trkpt>
      <trkpt lat="43.431273" lon="2.090747">
        <ele>625.9</ele>
        <time>2014-04-06T11:57:45Z</time>
      </trkpt>
      <trkpt lat="43.431263" lon="2.090633">
        <ele>622.4</ele>
        <time>2014-04-06T11:58:09Z</time>
      </trkpt>
      <trkpt lat="43.431273" lon="2.090533">
        <ele>619.8</ele>
        <time>2014-04-06T11:58:26Z</time>
      </trkpt>
      <trkpt lat="43.431285" lon="2.090457">
        <ele>619.3</ele>
        <time>2014-04-06T11:58:43Z</time>
      </trkpt>
      <trkpt lat="43.431206" lon="2.090406">
        <ele>617.7</ele>
        <time>2014-04-06T11:59:13Z</time>
      </trkpt>
      <trkpt lat="43.431154" lon="2.090311">
        <ele>613.4</ele>
        <time>2014-04-06T11:59:35Z</time>
      </trkpt>
      <trkpt lat="43.431096" lon="2.090232">
        <ele>610.6</ele>
        <time>2014-04-06T11:59:53Z</time>
      </trkpt>
      <trkpt lat="43.431047" lon="2.090125">
        <ele>609.0</ele>
        <time>2014-04-06T12:00:12Z</time>
      </trkpt>
      <trkpt lat="43.430944" lon="2.090165">
        <ele>608.0</ele>
        <time>2014-04-06T12:00:25Z</time>
      </trkpt>
      <trkpt lat="43.430831" lon="2.090207">
        <ele>607.4</ele>
        <time>2014-04-06T12:00:37Z</time>
      </trkpt>
      <trkpt lat="43.430722" lon="2.090286">
        <ele>606.8</ele>
        <time>2014-04-06T12:00:48Z</time>
      </trkpt>
      <trkpt lat="43.430619" lon="2.090380">
        <ele>606.8</ele>
        <time>2014-04-06T12:00:59Z</time>
      </trkpt>
      <trkpt lat="43.430520" lon="2.090461">
        <ele>606.1</ele>
        <time>2014-04-06T12:01:11Z</time>
      </trkpt>
      <trkpt lat="43.430417" lon="2.090539">
        <ele>605.9</ele>
        <time>2014-04-06T12:01:23Z</time>
      </trkpt>
      <trkpt lat="43.430339" lon="2.090625">
        <ele>605.3</ele>
        <time>2014-04-06T12:01:34Z</time>
      </trkpt>
      <trkpt lat="43.430241" lon="2.090700">
        <ele>604.7</ele>
        <time>2014-04-06T12:01:45Z</time>
      </trkpt>
      <trkpt lat="43.430132" lon="2.090807">
        <ele>605.1</ele>
        <time>2014-04-06T12:01:57Z</time>
      </trkpt>
      <trkpt lat="43.429980" lon="2.090795">
        <ele>605.3</ele>
        <time>2014-04-06T12:02:13Z</time>
        <name>Ruisseau de Malcoustat</name>
      </trkpt>
      <trkpt lat="43.429888" lon="2.090618">
        <ele>605.5</ele>
        <time>2014-04-06T12:02:26Z</time>
      </trkpt>
      <trkpt lat="43.429933" lon="2.090419">
        <ele>606.3</ele>
        <time>2014-04-06T12:02:39Z</time>
      </trkpt>
      <trkpt lat="43.429941" lon="2.090230">
        <ele>607.0</ele>
        <time>2014-04-06T12:02:52Z</time>
      </trkpt>
      <trkpt lat="43.429865" lon="2.090099">
        <ele>607.6</ele>
        <time>2014-04-06T12:03:04Z</time>
      </trkpt>
      <trkpt lat="43.429758" lon="2.090038">
        <ele>608.0</ele>
        <time>2014-04-06T12:03:17Z</time>
      </trkpt>
      <trkpt lat="43.429622" lon="2.090008">
        <ele>608.7</ele>
        <time>2014-04-06T12:03:29Z</time>
      </trkpt>
      <trkpt lat="43.429480" lon="2.090021">
        <ele>609.3</ele>
        <time>2014-04-06T12:03:40Z</time>
      </trkpt>
      <trkpt lat="43.429342" lon="2.090087">
        <ele>610.3</ele>
        <time>2014-04-06T12:03:53Z</time>
      </trkpt>
      <trkpt lat="43.429246" lon="2.090159">
        <ele>610.5</ele>
        <time>2014-04-06T12:04:05Z</time>
      </trkpt>
      <trkpt lat="43.429139" lon="2.090271">
        <ele>611.1</ele>
        <time>2014-04-06T12:04:17Z</time>
      </trkpt>
      <trkpt lat="43.428994" lon="2.090368">
        <ele>612.5</ele>
        <time>2014-04-06T12:04:32Z</time>
      </trkpt>
      <trkpt lat="43.428864" lon="2.090448">
        <ele>613.0</ele>
        <time>2014-04-06T12:04:49Z</time>
      </trkpt>
      <trkpt lat="43.428749" lon="2.090427">
        <ele>613.4</ele>
        <time>2014-04-06T12:05:06Z</time>
      </trkpt>
      <trkpt lat="43.428684" lon="2.090402">
        <ele>613.7</ele>
        <time>2014-04-06T12:05:27Z</time>
      </trkpt>
      <trkpt lat="43.428762" lon="2.090257">
        <ele>613.3</ele>
        <time>2014-04-06T12:05:45Z</time>
      </trkpt>
      <trkpt lat="43.428708" lon="2.090181">
        <ele>624.0</ele>
        <time>2014-04-06T12:07:15Z</time>
      </trkpt>
      <trkpt lat="43.428628" lon="2.090091">
        <ele>624.3</ele>
        <time>2014-04-06T12:07:35Z</time>
      </trkpt>
      <trkpt lat="43.428553" lon="2.090020">
        <ele>627.3</ele>
        <time>2014-04-06T12:07:51Z</time>
      </trkpt>
      <trkpt lat="43.428462" lon="2.089928">
        <ele>631.2</ele>
        <time>2014-04-06T12:08:10Z</time>
      </trkpt>
      <trkpt lat="43.428434" lon="2.089780">
        <ele>633.7</ele>
        <time>2014-04-06T12:08:26Z</time>
      </trkpt>
      <trkpt lat="43.428393" lon="2.089692">
        <ele>636.0</ele>
        <time>2014-04-06T12:08:47Z</time>
      </trkpt>
      <trkpt lat="43.428390" lon="2.089541">
        <ele>637.7</ele>
        <time>2014-04-06T12:09:02Z</time>
      </trkpt>
      <trkpt lat="43.428368" lon="2.089453">
        <ele>639.4</ele>
        <time>2014-04-06T12:09:20Z</time>
      </trkpt>
      <trkpt lat="43.428323" lon="2.089311">
        <ele>640.9</ele>
        <time>2014-04-06T12:09:34Z</time>
      </trkpt>
      <trkpt lat="43.428227" lon="2.089226">
        <ele>640.9</ele>
        <time>2014-04-06T12:09:51Z</time>
      </trkpt>
      <trkpt lat="43.428308" lon="2.088947">
        <ele>643.2</ele>
        <time>2014-04-06T12:14:47Z</time>
      </trkpt>
      <trkpt lat="43.428417" lon="2.088821">
        <ele>642.7</ele>
        <time>2014-04-06T12:15:00Z</time>
      </trkpt>
      <trkpt lat="43.428523" lon="2.088676">
        <ele>642.5</ele>
        <time>2014-04-06T12:15:14Z</time>
      </trkpt>
      <trkpt lat="43.428602" lon="2.088501">
        <ele>642.0</ele>
        <time>2014-04-06T12:15:28Z</time>
      </trkpt>
      <trkpt lat="43.428677" lon="2.088324">
        <ele>641.8</ele>
        <time>2014-04-06T12:15:43Z</time>
      </trkpt>
      <trkpt lat="43.428760" lon="2.088188">
        <ele>641.4</ele>
        <time>2014-04-06T12:15:56Z</time>
      </trkpt>
      <trkpt lat="43.428831" lon="2.088057">
        <ele>641.0</ele>
        <time>2014-04-06T12:16:08Z</time>
      </trkpt>
      <trkpt lat="43.428894" lon="2.087913">
        <ele>640.7</ele>
        <time>2014-04-06T12:16:19Z</time>
      </trkpt>
      <trkpt lat="43.428972" lon="2.087792">
        <ele>640.3</ele>
        <time>2014-04-06T12:16:32Z</time>
      </trkpt>
      <trkpt lat="43.429033" lon="2.087658">
        <ele>639.2</ele>
        <time>2014-04-06T12:16:44Z</time>
      </trkpt>
      <trkpt lat="43.429110" lon="2.087503">
        <ele>638.0</ele>
        <time>2014-04-06T12:16:56Z</time>
      </trkpt>
      <trkpt lat="43.429185" lon="2.087350">
        <ele>637.2</ele>
        <time>2014-04-06T12:17:08Z</time>
      </trkpt>
      <trkpt lat="43.429272" lon="2.087239">
        <ele>636.4</ele>
        <time>2014-04-06T12:17:19Z</time>
      </trkpt>
      <trkpt lat="43.429370" lon="2.087112">
        <ele>635.8</ele>
        <time>2014-04-06T12:17:31Z</time>
      </trkpt>
      <trkpt lat="43.429466" lon="2.086964">
        <ele>635.1</ele>
        <time>2014-04-06T12:17:44Z</time>
      </trkpt>
      <trkpt lat="43.429558" lon="2.086825">
        <ele>635.2</ele>
        <time>2014-04-06T12:17:59Z</time>
      </trkpt>
      <trkpt lat="43.429649" lon="2.086690">
        <ele>635.8</ele>
        <time>2014-04-06T12:18:12Z</time>
      </trkpt>
      <trkpt lat="43.429712" lon="2.086571">
        <ele>635.1</ele>
        <time>2014-04-06T12:18:23Z</time>
      </trkpt>
      <trkpt lat="43.429794" lon="2.086452">
        <ele>634.8</ele>
        <time>2014-04-06T12:18:36Z</time>
      </trkpt>
      <trkpt lat="43.429877" lon="2.086346">
        <ele>634.8</ele>
        <time>2014-04-06T12:18:47Z</time>
      </trkpt>
      <trkpt lat="43.429988" lon="2.086271">
        <ele>635.0</ele>
        <time>2014-04-06T12:18:59Z</time>
      </trkpt>
      <trkpt lat="43.430087" lon="2.086194">
        <ele>635.1</ele>
        <time>2014-04-06T12:19:10Z</time>
      </trkpt>
      <trkpt lat="43.430171" lon="2.086111">
        <ele>634.9</ele>
        <time>2014-04-06T12:19:20Z</time>
      </trkpt>
      <trkpt lat="43.430261" lon="2.086022">
        <ele>634.6</ele>
        <time>2014-04-06T12:19:30Z</time>
      </trkpt>
      <trkpt lat="43.430339" lon="2.085929">
        <ele>634.2</ele>
        <time>2014-04-06T12:19:39Z</time>
      </trkpt>
      <trkpt lat="43.430435" lon="2.085832">
        <ele>633.8</ele>
        <time>2014-04-06T12:19:50Z</time>
      </trkpt>
      <trkpt lat="43.430504" lon="2.085728">
        <ele>633.2</ele>
        <time>2014-04-06T12:20:01Z</time>
      </trkpt>
      <trkpt lat="43.430564" lon="2.085622">
        <ele>631.7</ele>
        <time>2014-04-06T12:20:14Z</time>
      </trkpt>
      <trkpt lat="43.430646" lon="2.085480">
        <ele>630.4</ele>
        <time>2014-04-06T12:20:25Z</time>
      </trkpt>
      <trkpt lat="43.430711" lon="2.085322">
        <ele>628.5</ele>
        <time>2014-04-06T12:20:39Z</time>
      </trkpt>
      <trkpt lat="43.430784" lon="2.085154">
        <ele>626.0</ele>
        <time>2014-04-06T12:20:58Z</time>
      </trkpt>
      <trkpt lat="43.430835" lon="2.084979">
        <ele>624.0</ele>
        <time>2014-04-06T12:21:16Z</time>
      </trkpt>
      <trkpt lat="43.430909" lon="2.084819">
        <ele>622.0</ele>
        <time>2014-04-06T12:21:33Z</time>
      </trkpt>
      <trkpt lat="43.430982" lon="2.084665">
        <ele>619.8</ele>
        <time>2014-04-06T12:21:50Z</time>
      </trkpt>
      <trkpt lat="43.431033" lon="2.084492">
        <ele>618.4</ele>
        <time>2014-04-06T12:22:05Z</time>
      </trkpt>
      <trkpt lat="43.431096" lon="2.084316">
        <ele>617.0</ele>
        <time>2014-04-06T12:22:21Z</time>
      </trkpt>
      <trkpt lat="43.431169" lon="2.084152">
        <ele>615.4</ele>
        <time>2014-04-06T12:22:35Z</time>
      </trkpt>
      <trkpt lat="43.431243" lon="2.084014">
        <ele>614.4</ele>
        <time>2014-04-06T12:22:49Z</time>
      </trkpt>
      <trkpt lat="43.431328" lon="2.083874">
        <ele>613.0</ele>
        <time>2014-04-06T12:23:01Z</time>
      </trkpt>
      <trkpt lat="43.431421" lon="2.083759">
        <ele>612.5</ele>
        <time>2014-04-06T12:23:13Z</time>
      </trkpt>
      <trkpt lat="43.431508" lon="2.083656">
        <ele>611.7</ele>
        <time>2014-04-06T12:23:25Z</time>
      </trkpt>
      <trkpt lat="43.431599" lon="2.083600">
        <ele>610.7</ele>
        <time>2014-04-06T12:23:37Z</time>
      </trkpt>
      <trkpt lat="43.431700" lon="2.083560">
        <ele>609.7</ele>
        <time>2014-04-06T12:23:48Z</time>
      </trkpt>
      <trkpt lat="43.431804" lon="2.083495">
        <ele>609.0</ele>
        <time>2014-04-06T12:23:58Z</time>
      </trkpt>
      <trkpt lat="43.431925" lon="2.083388">
        <ele>608.8</ele>
        <time>2014-04-06T12:24:12Z</time>
      </trkpt>
      <trkpt lat="43.432029" lon="2.083286">
        <ele>608.6</ele>
        <time>2014-04-06T12:24:26Z</time>
      </trkpt>
      <trkpt lat="43.432125" lon="2.083172">
        <ele>608.6</ele>
        <time>2014-04-06T12:24:42Z</time>
      </trkpt>
      <trkpt lat="43.432198" lon="2.083046">
        <ele>609.9</ele>
        <time>2014-04-06T12:24:57Z</time>
      </trkpt>
      <trkpt lat="43.432182" lon="2.082970">
        <ele>610.3</ele>
        <time>2014-04-06T12:26:05Z</time>
      </trkpt>
      <trkpt lat="43.432200" lon="2.082943">
        <ele>609.2</ele>
        <time>2014-04-06T12:26:35Z</time>
      </trkpt>
      <trkpt lat="43.432268" lon="2.082858">
        <ele>608.7</ele>
        <time>2014-04-06T12:26:52Z</time>
      </trkpt>
      <trkpt lat="43.432322" lon="2.082898">
        <ele>607.6</ele>
        <time>2014-04-06T12:27:24Z</time>
      </trkpt>
      <trkpt lat="43.432391" lon="2.082889">
        <ele>606.2</ele>
        <time>2014-04-06T12:27:44Z</time>
      </trkpt>
      <trkpt lat="43.432503" lon="2.082776">
        <ele>604.4</ele>
        <time>2014-04-06T12:28:47Z</time>
      </trkpt>
      <trkpt lat="43.432584" lon="2.082632">
        <ele>602.4</ele>
        <time>2014-04-06T12:29:00Z</time>
      </trkpt>
      <trkpt lat="43.432675" lon="2.082490">
        <ele>599.2</ele>
        <time>2014-04-06T12:29:16Z</time>
      </trkpt>
      <trkpt lat="43.432768" lon="2.082352">
        <ele>596.6</ele>
        <time>2014-04-06T12:29:32Z</time>
      </trkpt>
      <trkpt lat="43.432899" lon="2.082238">
        <ele>595.0</ele>
        <time>2014-04-06T12:29:46Z</time>
      </trkpt>
      <trkpt lat="43.433048" lon="2.082090">
        <ele>593.5</ele>
        <time>2014-04-06T12:30:03Z</time>
      </trkpt>
      <trkpt lat="43.433194" lon="2.082002">
        <ele>592.3</ele>
        <time>2014-04-06T12:30:17Z</time>
      </trkpt>
      <trkpt lat="43.433310" lon="2.081932">
        <ele>591.3</ele>
        <time>2014-04-06T12:30:31Z</time>
      </trkpt>
      <trkpt lat="43.433484" lon="2.081873">
        <ele>591.0</ele>
        <time>2014-04-06T12:30:47Z</time>
      </trkpt>
      <trkpt lat="43.433662" lon="2.081862">
        <ele>590.7</ele>
        <time>2014-04-06T12:31:03Z</time>
      </trkpt>
      <trkpt lat="43.433774" lon="2.081795">
        <ele>589.9</ele>
        <time>2014-04-06T12:31:18Z</time>
      </trkpt>
      <trkpt lat="43.433879" lon="2.081666">
        <ele>588.7</ele>
        <time>2014-04-06T12:31:31Z</time>
      </trkpt>
      <trkpt lat="43.433998" lon="2.081537">
        <ele>587.6</ele>
        <time>2014-04-06T12:31:45Z</time>
      </trkpt>
      <trkpt lat="43.434131" lon="2.081395">
        <ele>586.7</ele>
        <time>2014-04-06T12:32:00Z</time>
      </trkpt>
      <trkpt lat="43.434237" lon="2.081296">
        <ele>585.7</ele>
        <time>2014-04-06T12:32:13Z</time>
      </trkpt>
      <trkpt lat="43.434377" lon="2.081166">
        <ele>584.9</ele>
        <time>2014-04-06T12:32:30Z</time>
      </trkpt>
      <trkpt lat="43.434486" lon="2.081039">
        <ele>583.1</ele>
        <time>2014-04-06T12:32:45Z</time>
      </trkpt>
      <trkpt lat="43.434604" lon="2.080908">
        <ele>581.2</ele>
        <time>2014-04-06T12:33:03Z</time>
      </trkpt>
      <trkpt lat="43.434690" lon="2.080795">
        <ele>580.1</ele>
        <time>2014-04-06T12:33:16Z</time>
      </trkpt>
      <trkpt lat="43.434812" lon="2.080672">
        <ele>579.5</ele>
        <time>2014-04-06T12:33:32Z</time>
      </trkpt>
      <trkpt lat="43.434929" lon="2.080598">
        <ele>578.9</ele>
        <time>2014-04-06T12:33:45Z</time>
      </trkpt>
      <trkpt lat="43.435050" lon="2.080550">
        <ele>577.5</ele>
        <time>2014-04-06T12:33:58Z</time>
      </trkpt>
      <trkpt lat="43.435155" lon="2.080499">
        <ele>576.1</ele>
        <time>2014-04-06T12:34:10Z</time>
      </trkpt>
      <trkpt lat="43.435252" lon="2.080484">
        <ele>574.7</ele>
        <time>2014-04-06T12:34:21Z</time>
      </trkpt>
      <trkpt lat="43.435355" lon="2.080485">
        <ele>573.4</ele>
        <time>2014-04-06T12:34:33Z</time>
      </trkpt>
      <trkpt lat="43.435473" lon="2.080466">
        <ele>571.8</ele>
        <time>2014-04-06T12:34:48Z</time>
      </trkpt>
      <trkpt lat="43.435595" lon="2.080434">
        <ele>569.5</ele>
        <time>2014-04-06T12:35:05Z</time>
      </trkpt>
      <trkpt lat="43.435729" lon="2.080431">
        <ele>567.4</ele>
        <time>2014-04-06T12:35:21Z</time>
      </trkpt>
      <trkpt lat="43.435883" lon="2.080384">
        <ele>565.4</ele>
        <time>2014-04-06T12:35:37Z</time>
      </trkpt>
      <trkpt lat="43.436011" lon="2.080355">
        <ele>563.5</ele>
        <time>2014-04-06T12:35:53Z</time>
      </trkpt>
      <trkpt lat="43.436135" lon="2.080312">
        <ele>560.3</ele>
        <time>2014-04-06T12:36:14Z</time>
      </trkpt>
      <trkpt lat="43.436270" lon="2.080222">
        <ele>557.5</ele>
        <time>2014-04-06T12:36:34Z</time>
      </trkpt>
      <trkpt lat="43.436373" lon="2.080159">
        <ele>554.6</ele>
        <time>2014-04-06T12:36:51Z</time>
      </trkpt>
      <trkpt lat="43.436498" lon="2.080091">
        <ele>552.2</ele>
        <time>2014-04-06T12:37:09Z</time>
      </trkpt>
      <trkpt lat="43.436604" lon="2.080033">
        <ele>550.2</ele>
        <time>2014-04-06T12:37:28Z</time>
      </trkpt>
      <trkpt lat="43.436717" lon="2.080019">
        <ele>549.2</ele>
        <time>2014-04-06T12:37:50Z</time>
      </trkpt>
      <trkpt lat="43.436828" lon="2.079977">
        <ele>547.7</ele>
        <time>2014-04-06T12:38:11Z</time>
      </trkpt>
      <trkpt lat="43.436952" lon="2.079954">
        <ele>547.1</ele>
        <time>2014-04-06T12:38:25Z</time>
      </trkpt>
      <trkpt lat="43.437050" lon="2.079958">
        <ele>546.3</ele>
        <time>2014-04-06T12:38:43Z</time>
      </trkpt>
      <trkpt lat="43.437155" lon="2.080000">
        <ele>546.1</ele>
        <time>2014-04-06T12:40:49Z</time>
      </trkpt>
      <trkpt lat="43.437190" lon="2.079931">
        <ele>545.4</ele>
        <time>2014-04-06T12:41:29Z</time>
      </trkpt>
      <trkpt lat="43.437259" lon="2.079784">
        <ele>543.5</ele>
        <time>2014-04-06T12:41:47Z</time>
      </trkpt>
      <trkpt lat="43.437392" lon="2.079666">
        <ele>541.3</ele>
        <time>2014-04-06T12:42:05Z</time>
      </trkpt>
      <trkpt lat="43.437534" lon="2.079618">
        <ele>539.8</ele>
        <time>2014-04-06T12:42:20Z</time>
      </trkpt>
      <trkpt lat="43.437670" lon="2.079644">
        <ele>538.3</ele>
        <time>2014-04-06T12:42:35Z</time>
      </trkpt>
      <trkpt lat="43.437790" lon="2.079600">
        <ele>537.5</ele>
        <time>2014-04-06T12:42:48Z</time>
      </trkpt>
      <trkpt lat="43.437910" lon="2.079499">
        <ele>536.4</ele>
        <time>2014-04-06T12:43:01Z</time>
      </trkpt>
      <trkpt lat="43.438038" lon="2.079463">
        <ele>535.9</ele>
        <time>2014-04-06T12:43:15Z</time>
      </trkpt>
      <trkpt lat="43.438086" lon="2.079419">
        <ele>536.0</ele>
        <time>2014-04-06T12:43:46Z</time>
      </trkpt>
      <trkpt lat="43.438191" lon="2.079369">
        <ele>534.8</ele>
        <time>2014-04-06T12:44:00Z</time>
      </trkpt>
      <trkpt lat="43.438223" lon="2.079363">
        <ele>534.6</ele>
        <time>2014-04-06T12:44:04Z</time>
      </trkpt>
      <trkpt lat="43.438297" lon="2.079364">
        <ele>534.4</ele>
        <time>2014-04-06T12:44:15Z</time>
      </trkpt>
      <trkpt lat="43.438392" lon="2.079309">
        <ele>534.3</ele>
        <time>2014-04-06T12:44:28Z</time>
      </trkpt>
      <trkpt lat="43.438443" lon="2.079189">
        <ele>534.4</ele>
        <time>2014-04-06T12:44:37Z</time>
      </trkpt>
      <trkpt lat="43.438478" lon="2.079012">
        <ele>534.7</ele>
        <time>2014-04-06T12:44:47Z</time>
      </trkpt>
      <trkpt lat="43.438516" lon="2.078839">
        <ele>534.8</ele>
        <time>2014-04-06T12:44:58Z</time>
      </trkpt>
      <trkpt lat="43.438567" lon="2.078688">
        <ele>534.7</ele>
        <time>2014-04-06T12:45:11Z</time>
      </trkpt>
      <trkpt lat="43.438639" lon="2.078517">
        <ele>535.2</ele>
        <time>2014-04-06T12:45:24Z</time>
      </trkpt>
      <trkpt lat="43.438741" lon="2.078413">
        <ele>536.0</ele>
        <time>2014-04-06T12:45:37Z</time>
      </trkpt>
      <trkpt lat="43.438876" lon="2.078393">
        <ele>535.6</ele>
        <time>2014-04-06T12:45:48Z</time>
      </trkpt>
      <trkpt lat="43.439004" lon="2.078409">
        <ele>534.8</ele>
        <time>2014-04-06T12:45:59Z</time>
      </trkpt>
      <trkpt lat="43.439134" lon="2.078406">
        <ele>534.6</ele>
        <time>2014-04-06T12:46:10Z</time>
      </trkpt>
      <trkpt lat="43.439256" lon="2.078350">
        <ele>534.5</ele>
        <time>2014-04-06T12:46:21Z</time>
      </trkpt>
      <trkpt lat="43.439380" lon="2.078299">
        <ele>534.2</ele>
        <time>2014-04-06T12:46:33Z</time>
      </trkpt>
      <trkpt lat="43.439494" lon="2.078171">
        <ele>532.6</ele>
        <time>2014-04-06T12:46:47Z</time>
      </trkpt>
      <trkpt lat="43.439617" lon="2.078127">
        <ele>531.7</ele>
        <time>2014-04-06T12:47:01Z</time>
      </trkpt>
      <trkpt lat="43.439746" lon="2.078169">
        <ele>530.5</ele>
        <time>2014-04-06T12:47:14Z</time>
      </trkpt>
      <trkpt lat="43.439855" lon="2.078142">
        <ele>529.5</ele>
        <time>2014-04-06T12:47:27Z</time>
      </trkpt>
      <trkpt lat="43.439928" lon="2.078042">
        <ele>526.8</ele>
        <time>2014-04-06T12:47:45Z</time>
      </trkpt>
      <trkpt lat="43.439983" lon="2.077908">
        <ele>524.7</ele>
        <time>2014-04-06T12:47:59Z</time>
      </trkpt>
      <trkpt lat="43.440058" lon="2.077737">
        <ele>523.0</ele>
        <time>2014-04-06T12:48:12Z</time>
      </trkpt>
      <trkpt lat="43.440182" lon="2.077637">
        <ele>521.8</ele>
        <time>2014-04-06T12:48:25Z</time>
      </trkpt>
      <trkpt lat="43.440308" lon="2.077574">
        <ele>521.4</ele>
        <time>2014-04-06T12:48:37Z</time>
      </trkpt>
      <trkpt lat="43.440426" lon="2.077509">
        <ele>521.7</ele>
        <time>2014-04-06T12:48:53Z</time>
      </trkpt>
      <trkpt lat="43.440544" lon="2.077467">
        <ele>522.4</ele>
        <time>2014-04-06T12:49:05Z</time>
      </trkpt>
      <trkpt lat="43.440685" lon="2.077460">
        <ele>524.5</ele>
        <time>2014-04-06T12:49:17Z</time>
      </trkpt>
      <trkpt lat="43.440806" lon="2.077360">
        <ele>526.9</ele>
        <time>2014-04-06T12:49:29Z</time>
      </trkpt>
      <trkpt lat="43.440897" lon="2.077317">
        <ele>528.7</ele>
        <time>2014-04-06T12:49:39Z</time>
      </trkpt>
      <trkpt lat="43.441000" lon="2.077260">
        <ele>529.5</ele>
        <time>2014-04-06T12:49:46Z</time>
      </trkpt>
      <trkpt lat="43.441113" lon="2.077214">
        <ele>530.9</ele>
        <time>2014-04-06T12:49:56Z</time>
      </trkpt>
      <trkpt lat="43.441345" lon="2.077211">
        <ele>533.3</ele>
        <time>2014-04-06T12:50:15Z</time>
      </trkpt>
      <trkpt lat="43.441420" lon="2.077173">
        <ele>534.0</ele>
        <time>2014-04-06T12:50:27Z</time>
      </trkpt>
      <trkpt lat="43.441514" lon="2.077209">
        <ele>535.7</ele>
        <time>2014-04-06T12:54:10Z</time>
      </trkpt>
      <trkpt lat="43.441649" lon="2.077233">
        <ele>537.9</ele>
        <time>2014-04-06T12:54:25Z</time>
      </trkpt>
      <trkpt lat="43.441738" lon="2.077278">
        <ele>539.1</ele>
        <time>2014-04-06T12:54:39Z</time>
      </trkpt>
      <trkpt lat="43.441747" lon="2.077143">
        <ele>542.9</ele>
        <time>2014-04-06T12:58:12Z</time>
      </trkpt>
      <trkpt lat="43.441658" lon="2.077055">
        <ele>546.2</ele>
        <time>2014-04-06T12:58:29Z</time>
      </trkpt>
      <trkpt lat="43.441596" lon="2.076935">
        <ele>548.4</ele>
        <time>2014-04-06T12:58:46Z</time>
      </trkpt>
      <trkpt lat="43.441552" lon="2.076831">
        <ele>549.8</ele>
        <time>2014-04-06T12:59:00Z</time>
      </trkpt>
      <trkpt lat="43.441552" lon="2.076673">
        <ele>550.2</ele>
        <time>2014-04-06T12:59:12Z</time>
      </trkpt>
      <trkpt lat="43.441550" lon="2.076523">
        <ele>550.8</ele>
        <time>2014-04-06T12:59:24Z</time>
      </trkpt>
      <trkpt lat="43.441584" lon="2.076367">
        <ele>551.5</ele>
        <time>2014-04-06T12:59:36Z</time>
      </trkpt>
      <trkpt lat="43.441624" lon="2.076251">
        <ele>552.2</ele>
        <time>2014-04-06T12:59:48Z</time>
      </trkpt>
      <trkpt lat="43.441630" lon="2.076127">
        <ele>553.0</ele>
        <time>2014-04-06T13:00:00Z</time>
      </trkpt>
      <trkpt lat="43.441636" lon="2.075977">
        <ele>554.9</ele>
        <time>2014-04-06T13:00:12Z</time>
      </trkpt>
      <trkpt lat="43.441641" lon="2.075832">
        <ele>557.3</ele>
        <time>2014-04-06T13:00:27Z</time>
      </trkpt>
      <trkpt lat="43.441603" lon="2.075695">
        <ele>558.4</ele>
        <time>2014-04-06T13:00:40Z</time>
      </trkpt>
      <trkpt lat="43.441642" lon="2.075576">
        <ele>557.4</ele>
        <time>2014-04-06T13:00:54Z</time>
      </trkpt>
      <trkpt lat="43.441742" lon="2.075565">
        <ele>555.7</ele>
        <time>2014-04-06T13:01:08Z</time>
      </trkpt>
      <trkpt lat="43.441826" lon="2.075451">
        <ele>554.7</ele>
        <time>2014-04-06T13:01:23Z</time>
      </trkpt>
      <trkpt lat="43.441878" lon="2.075341">
        <ele>555.2</ele>
        <time>2014-04-06T13:01:39Z</time>
      </trkpt>
      <trkpt lat="43.441882" lon="2.075194">
        <ele>555.7</ele>
        <time>2014-04-06T13:01:52Z</time>
      </trkpt>
      <trkpt lat="43.441873" lon="2.075054">
        <ele>557.4</ele>
        <time>2014-04-06T13:02:04Z</time>
      </trkpt>
      <trkpt lat="43.441853" lon="2.074904">
        <ele>558.3</ele>
        <time>2014-04-06T13:02:19Z</time>
      </trkpt>
      <trkpt lat="43.441866" lon="2.074773">
        <ele>559.1</ele>
        <time>2014-04-06T13:02:30Z</time>
      </trkpt>
      <trkpt lat="43.441862" lon="2.074614">
        <ele>560.3</ele>
        <time>2014-04-06T13:02:42Z</time>
      </trkpt>
      <trkpt lat="43.441909" lon="2.074471">
        <ele>560.0</ele>
        <time>2014-04-06T13:02:54Z</time>
      </trkpt>
      <trkpt lat="43.441973" lon="2.074354">
        <ele>557.9</ele>
        <time>2014-04-06T13:03:08Z</time>
      </trkpt>
      <trkpt lat="43.442020" lon="2.074248">
        <ele>557.1</ele>
        <time>2014-04-06T13:03:26Z</time>
      </trkpt>
      <trkpt lat="43.442072" lon="2.074153">
        <ele>556.9</ele>
        <time>2014-04-06T13:12:49Z</time>
      </trkpt>
      <trkpt lat="43.442081" lon="2.074036">
        <ele>555.8</ele>
        <time>2014-04-06T13:13:10Z</time>
      </trkpt>
      <trkpt lat="43.442040" lon="2.073922">
        <ele>563.4</ele>
        <time>2014-04-06T13:52:52Z</time>
      </trkpt>
      <trkpt lat="43.442043" lon="2.073948">
        <ele>563.7</ele>
        <time>2014-04-06T14:01:53Z</time>
        <name>Oppidum de Bernicaud</name>
      </trkpt>
      <trkpt lat="43.442050" lon="2.074022">
        <ele>564.8</ele>
        <time>2014-04-06T14:02:11Z</time>
      </trkpt>
      <trkpt lat="43.442047" lon="2.074165">
        <ele>564.8</ele>
        <time>2014-04-06T14:02:23Z</time>
      </trkpt>
      <trkpt lat="43.442009" lon="2.074257">
        <ele>566.3</ele>
        <time>2014-04-06T14:06:14Z</time>
      </trkpt>
      <trkpt lat="43.441967" lon="2.074319">
        <ele>567.8</ele>
        <time>2014-04-06T14:06:29Z</time>
      </trkpt>
      <trkpt lat="43.441899" lon="2.074391">
        <ele>567.4</ele>
        <time>2014-04-06T14:06:39Z</time>
      </trkpt>
      <trkpt lat="43.441869" lon="2.074526">
        <ele>567.0</ele>
        <time>2014-04-06T14:06:50Z</time>
      </trkpt>
      <trkpt lat="43.441852" lon="2.074660">
        <ele>565.6</ele>
        <time>2014-04-06T14:07:03Z</time>
      </trkpt>
      <trkpt lat="43.441865" lon="2.074794">
        <ele>565.5</ele>
        <time>2014-04-06T14:07:15Z</time>
      </trkpt>
      <trkpt lat="43.441854" lon="2.074917">
        <ele>564.0</ele>
        <time>2014-04-06T14:07:27Z</time>
      </trkpt>
      <trkpt lat="43.441885" lon="2.075037">
        <ele>563.1</ele>
        <time>2014-04-06T14:07:38Z</time>
      </trkpt>
      <trkpt lat="43.441884" lon="2.075180">
        <ele>562.2</ele>
        <time>2014-04-06T14:07:49Z</time>
      </trkpt>
      <trkpt lat="43.441864" lon="2.075330">
        <ele>562.2</ele>
        <time>2014-04-06T14:08:00Z</time>
      </trkpt>
      <trkpt lat="43.441790" lon="2.075474">
        <ele>562.7</ele>
        <time>2014-04-06T14:08:12Z</time>
      </trkpt>
      <trkpt lat="43.441705" lon="2.075566">
        <ele>564.5</ele>
        <time>2014-04-06T14:08:26Z</time>
      </trkpt>
      <trkpt lat="43.441612" lon="2.075585">
        <ele>565.4</ele>
        <time>2014-04-06T14:08:41Z</time>
      </trkpt>
      <trkpt lat="43.441574" lon="2.075698">
        <ele>563.7</ele>
        <time>2014-04-06T14:08:56Z</time>
      </trkpt>
      <trkpt lat="43.441628" lon="2.075796">
        <ele>561.2</ele>
        <time>2014-04-06T14:09:11Z</time>
      </trkpt>
      <trkpt lat="43.441633" lon="2.075913">
        <ele>559.4</ele>
        <time>2014-04-06T14:09:24Z</time>
      </trkpt>
      <trkpt lat="43.441633" lon="2.076042">
        <ele>558.6</ele>
        <time>2014-04-06T14:09:36Z</time>
      </trkpt>
      <trkpt lat="43.441637" lon="2.076182">
        <ele>558.1</ele>
        <time>2014-04-06T14:09:49Z</time>
      </trkpt>
      <trkpt lat="43.441589" lon="2.076318">
        <ele>557.6</ele>
        <time>2014-04-06T14:10:05Z</time>
      </trkpt>
      <trkpt lat="43.441549" lon="2.076453">
        <ele>557.0</ele>
        <time>2014-04-06T14:10:17Z</time>
      </trkpt>
      <trkpt lat="43.441558" lon="2.076590">
        <ele>556.8</ele>
        <time>2014-04-06T14:10:26Z</time>
      </trkpt>
      <trkpt lat="43.441558" lon="2.076704">
        <ele>556.5</ele>
        <time>2014-04-06T14:11:57Z</time>
      </trkpt>
      <trkpt lat="43.441552" lon="2.076801">
        <ele>533.4</ele>
        <time>2014-04-06T14:13:43Z</time>
      </trkpt>
      <trkpt lat="43.441597" lon="2.076943">
        <ele>528.3</ele>
        <time>2014-04-06T14:14:05Z</time>
      </trkpt>
      <trkpt lat="43.441660" lon="2.077037">
        <ele>524.2</ele>
        <time>2014-04-06T14:14:17Z</time>
      </trkpt>
      <trkpt lat="43.441741" lon="2.077120">
        <ele>516.8</ele>
        <time>2014-04-06T14:14:32Z</time>
      </trkpt>
      <trkpt lat="43.441764" lon="2.077210">
        <ele>513.1</ele>
        <time>2014-04-06T14:14:53Z</time>
      </trkpt>
      <trkpt lat="43.441728" lon="2.077288">
        <ele>544.9</ele>
        <time>2014-04-06T14:16:00Z</time>
      </trkpt>
      <trkpt lat="43.441623" lon="2.077222">
        <ele>542.6</ele>
        <time>2014-04-06T14:16:26Z</time>
      </trkpt>
      <trkpt lat="43.441512" lon="2.077181">
        <ele>540.7</ele>
        <time>2014-04-06T14:16:41Z</time>
      </trkpt>
      <trkpt lat="43.441477" lon="2.077170">
        <ele>540.2</ele>
        <time>2014-04-06T14:19:30Z</time>
      </trkpt>
      <trkpt lat="43.441421" lon="2.077037">
        <ele>542.2</ele>
        <time>2014-04-06T14:19:49Z</time>
      </trkpt>
      <trkpt lat="43.441407" lon="2.076855">
        <ele>543.6</ele>
        <time>2014-04-06T14:20:02Z</time>
      </trkpt>
      <trkpt lat="43.441409" lon="2.076674">
        <ele>544.3</ele>
        <time>2014-04-06T14:20:18Z</time>
      </trkpt>
      <trkpt lat="43.441394" lon="2.076504">
        <ele>543.1</ele>
        <time>2014-04-06T14:20:38Z</time>
      </trkpt>
      <trkpt lat="43.441354" lon="2.076366">
        <ele>540.3</ele>
        <time>2014-04-06T14:20:55Z</time>
      </trkpt>
      <trkpt lat="43.441353" lon="2.076185">
        <ele>539.5</ele>
        <time>2014-04-06T14:21:12Z</time>
      </trkpt>
      <trkpt lat="43.441372" lon="2.076078">
        <ele>538.4</ele>
        <time>2014-04-06T14:22:05Z</time>
      </trkpt>
      <trkpt lat="43.441409" lon="2.075951">
        <ele>535.4</ele>
        <time>2014-04-06T14:23:40Z</time>
      </trkpt>
      <trkpt lat="43.441312" lon="2.075893">
        <ele>532.2</ele>
        <time>2014-04-06T14:24:04Z</time>
      </trkpt>
      <trkpt lat="43.441274" lon="2.075790">
        <ele>527.9</ele>
        <time>2014-04-06T14:24:31Z</time>
      </trkpt>
      <trkpt lat="43.441263" lon="2.075636">
        <ele>525.9</ele>
        <time>2014-04-06T14:24:46Z</time>
      </trkpt>
      <trkpt lat="43.441275" lon="2.075468">
        <ele>526.9</ele>
        <time>2014-04-06T14:25:04Z</time>
      </trkpt>
      <trkpt lat="43.441266" lon="2.075483">
        <ele>523.1</ele>
        <time>2014-04-06T14:27:07Z</time>
      </trkpt>
      <trkpt lat="43.441200" lon="2.075617">
        <ele>520.6</ele>
        <time>2014-04-06T14:27:28Z</time>
      </trkpt>
      <trkpt lat="43.441132" lon="2.075682">
        <ele>517.3</ele>
        <time>2014-04-06T14:27:51Z</time>
      </trkpt>
      <trkpt lat="43.441123" lon="2.075573">
        <ele>515.0</ele>
        <time>2014-04-06T14:28:09Z</time>
      </trkpt>
      <trkpt lat="43.441082" lon="2.075558">
        <ele>511.8</ele>
        <time>2014-04-06T14:28:39Z</time>
      </trkpt>
      <trkpt lat="43.441060" lon="2.075395">
        <ele>508.1</ele>
        <time>2014-04-06T14:28:58Z</time>
      </trkpt>
      <trkpt lat="43.441058" lon="2.075249">
        <ele>507.2</ele>
        <time>2014-04-06T14:29:20Z</time>
      </trkpt>
      <trkpt lat="43.441055" lon="2.075069">
        <ele>505.5</ele>
        <time>2014-04-06T14:29:35Z</time>
      </trkpt>
      <trkpt lat="43.441080" lon="2.074905">
        <ele>504.2</ele>
        <time>2014-04-06T14:29:48Z</time>
      </trkpt>
      <trkpt lat="43.441112" lon="2.074747">
        <ele>504.2</ele>
        <time>2014-04-06T14:30:04Z</time>
      </trkpt>
      <trkpt lat="43.441207" lon="2.074607">
        <ele>505.2</ele>
        <time>2014-04-06T14:30:19Z</time>
      </trkpt>
      <trkpt lat="43.441271" lon="2.074437">
        <ele>506.3</ele>
        <time>2014-04-06T14:30:34Z</time>
      </trkpt>
      <trkpt lat="43.441306" lon="2.074274">
        <ele>505.6</ele>
        <time>2014-04-06T14:30:53Z</time>
      </trkpt>
      <trkpt lat="43.441369" lon="2.074107">
        <ele>505.5</ele>
        <time>2014-04-06T14:31:13Z</time>
      </trkpt>
      <trkpt lat="43.441405" lon="2.073974">
        <ele>502.7</ele>
        <time>2014-04-06T14:31:30Z</time>
      </trkpt>
      <trkpt lat="43.441384" lon="2.073792">
        <ele>502.7</ele>
        <time>2014-04-06T14:31:49Z</time>
      </trkpt>
      <trkpt lat="43.441442" lon="2.073618">
        <ele>504.6</ele>
        <time>2014-04-06T14:32:05Z</time>
      </trkpt>
      <trkpt lat="43.441537" lon="2.073533">
        <ele>509.2</ele>
        <time>2014-04-06T14:32:26Z</time>
      </trkpt>
      <trkpt lat="43.441648" lon="2.073498">
        <ele>512.5</ele>
        <time>2014-04-06T14:32:44Z</time>
      </trkpt>
      <trkpt lat="43.441722" lon="2.073413">
        <ele>513.8</ele>
        <time>2014-04-06T14:33:06Z</time>
      </trkpt>
      <trkpt lat="43.441784" lon="2.073405">
        <ele>515.2</ele>
        <time>2014-04-06T14:33:49Z</time>
      </trkpt>
      <trkpt lat="43.441772" lon="2.073349">
        <ele>512.0</ele>
        <time>2014-04-06T14:34:08Z</time>
      </trkpt>
      <trkpt lat="43.441727" lon="2.073260">
        <ele>510.4</ele>
        <time>2014-04-06T14:34:31Z</time>
      </trkpt>
      <trkpt lat="43.441691" lon="2.073153">
        <ele>504.5</ele>
        <time>2014-04-06T14:35:04Z</time>
      </trkpt>
      <trkpt lat="43.441725" lon="2.073002">
        <ele>501.6</ele>
        <time>2014-04-06T14:35:25Z</time>
      </trkpt>
      <trkpt lat="43.441758" lon="2.072872">
        <ele>500.9</ele>
        <time>2014-04-06T14:35:37Z</time>
      </trkpt>
      <trkpt lat="43.441807" lon="2.072765">
        <ele>503.7</ele>
        <time>2014-04-06T14:37:37Z</time>
      </trkpt>
      <trkpt lat="43.441847" lon="2.072648">
        <ele>501.6</ele>
        <time>2014-04-06T14:37:55Z</time>
      </trkpt>
      <trkpt lat="43.441889" lon="2.072532">
        <ele>503.1</ele>
        <time>2014-04-06T14:38:10Z</time>
      </trkpt>
      <trkpt lat="43.441918" lon="2.072412">
        <ele>504.4</ele>
        <time>2014-04-06T14:38:25Z</time>
      </trkpt>
      <trkpt lat="43.441987" lon="2.072316">
        <ele>508.1</ele>
        <time>2014-04-06T14:38:40Z</time>
      </trkpt>
      <trkpt lat="43.442050" lon="2.072186">
        <ele>510.2</ele>
        <time>2014-04-06T14:38:55Z</time>
      </trkpt>
      <trkpt lat="43.442087" lon="2.072034">
        <ele>511.4</ele>
        <time>2014-04-06T14:39:08Z</time>
      </trkpt>
      <trkpt lat="43.442096" lon="2.071896">
        <ele>512.7</ele>
        <time>2014-04-06T14:39:21Z</time>
      </trkpt>
      <trkpt lat="43.442131" lon="2.071770">
        <ele>513.2</ele>
        <time>2014-04-06T14:39:32Z</time>
      </trkpt>
      <trkpt lat="43.442153" lon="2.071718">
        <ele>513.7</ele>
        <time>2014-04-06T14:40:30Z</time>
      </trkpt>
      <trkpt lat="43.442126" lon="2.071591">
        <ele>512.4</ele>
        <time>2014-04-06T14:40:53Z</time>
      </trkpt>
      <trkpt lat="43.442153" lon="2.071470">
        <ele>510.8</ele>
        <time>2014-04-06T14:41:07Z</time>
      </trkpt>
      <trkpt lat="43.442136" lon="2.071353">
        <ele>508.5</ele>
        <time>2014-04-06T14:41:18Z</time>
      </trkpt>
      <trkpt lat="43.442100" lon="2.071238">
        <ele>505.8</ele>
        <time>2014-04-06T14:41:30Z</time>
      </trkpt>
      <trkpt lat="43.442084" lon="2.071095">
        <ele>502.9</ele>
        <time>2014-04-06T14:41:43Z</time>
      </trkpt>
      <trkpt lat="43.442059" lon="2.070967">
        <ele>500.3</ele>
        <time>2014-04-06T14:41:56Z</time>
      </trkpt>
      <trkpt lat="43.442029" lon="2.070832">
        <ele>498.4</ele>
        <time>2014-04-06T14:42:09Z</time>
      </trkpt>
      <trkpt lat="43.441991" lon="2.070710">
        <ele>497.1</ele>
        <time>2014-04-06T14:42:20Z</time>
      </trkpt>
      <trkpt lat="43.441961" lon="2.070573">
        <ele>495.4</ele>
        <time>2014-04-06T14:42:32Z</time>
      </trkpt>
      <trkpt lat="43.441915" lon="2.070457">
        <ele>494.4</ele>
        <time>2014-04-06T14:42:43Z</time>
      </trkpt>
      <trkpt lat="43.441885" lon="2.070331">
        <ele>494.4</ele>
        <time>2014-04-06T14:42:52Z</time>
      </trkpt>
      <trkpt lat="43.441823" lon="2.070218">
        <ele>494.5</ele>
        <time>2014-04-06T14:43:02Z</time>
      </trkpt>
      <trkpt lat="43.441802" lon="2.070119">
        <ele>494.6</ele>
        <time>2014-04-06T14:43:52Z</time>
      </trkpt>
      <trkpt lat="43.441841" lon="2.070036">
        <ele>491.9</ele>
        <time>2014-04-06T14:45:34Z</time>
      </trkpt>
      <trkpt lat="43.441924" lon="2.069955">
        <ele>489.6</ele>
        <time>2014-04-06T14:45:46Z</time>
      </trkpt>
      <trkpt lat="43.441987" lon="2.069880">
        <ele>488.1</ele>
        <time>2014-04-06T14:45:56Z</time>
      </trkpt>
      <trkpt lat="43.442075" lon="2.069793">
        <ele>486.6</ele>
        <time>2014-04-06T14:46:07Z</time>
      </trkpt>
      <trkpt lat="43.442147" lon="2.069711">
        <ele>485.8</ele>
        <time>2014-04-06T14:46:17Z</time>
      </trkpt>
      <trkpt lat="43.442221" lon="2.069658">
        <ele>484.5</ele>
        <time>2014-04-06T14:46:27Z</time>
      </trkpt>
      <trkpt lat="43.442304" lon="2.069605">
        <ele>483.3</ele>
        <time>2014-04-06T14:46:36Z</time>
      </trkpt>
      <trkpt lat="43.442391" lon="2.069541">
        <ele>481.9</ele>
        <time>2014-04-06T14:46:46Z</time>
      </trkpt>
      <trkpt lat="43.442489" lon="2.069491">
        <ele>480.7</ele>
        <time>2014-04-06T14:46:58Z</time>
      </trkpt>
      <trkpt lat="43.442584" lon="2.069485">
        <ele>478.9</ele>
        <time>2014-04-06T14:47:10Z</time>
      </trkpt>
      <trkpt lat="43.442707" lon="2.069459">
        <ele>477.3</ele>
        <time>2014-04-06T14:47:23Z</time>
      </trkpt>
      <trkpt lat="43.442813" lon="2.069375">
        <ele>474.4</ele>
        <time>2014-04-06T14:47:37Z</time>
      </trkpt>
      <trkpt lat="43.442920" lon="2.069272">
        <ele>471.4</ele>
        <time>2014-04-06T14:47:54Z</time>
      </trkpt>
      <trkpt lat="43.443059" lon="2.069187">
        <ele>468.7</ele>
        <time>2014-04-06T14:48:12Z</time>
      </trkpt>
      <trkpt lat="43.443200" lon="2.069156">
        <ele>466.2</ele>
        <time>2014-04-06T14:48:28Z</time>
      </trkpt>
      <trkpt lat="43.443320" lon="2.069202">
        <ele>464.2</ele>
        <time>2014-04-06T14:48:44Z</time>
      </trkpt>
      <trkpt lat="43.443414" lon="2.069277">
        <ele>463.5</ele>
        <time>2014-04-06T14:48:58Z</time>
      </trkpt>
      <trkpt lat="43.443522" lon="2.069364">
        <ele>461.7</ele>
        <time>2014-04-06T14:49:14Z</time>
      </trkpt>
      <trkpt lat="43.443601" lon="2.069501">
        <ele>460.4</ele>
        <time>2014-04-06T14:49:32Z</time>
      </trkpt>
      <trkpt lat="43.443682" lon="2.069609">
        <ele>458.0</ele>
        <time>2014-04-06T14:49:50Z</time>
      </trkpt>
      <trkpt lat="43.443789" lon="2.069635">
        <ele>452.8</ele>
        <time>2014-04-06T14:50:14Z</time>
      </trkpt>
      <trkpt lat="43.443901" lon="2.069691">
        <ele>447.6</ele>
        <time>2014-04-06T14:55:05Z</time>
      </trkpt>
      <trkpt lat="43.444033" lon="2.069659">
        <ele>443.2</ele>
        <time>2014-04-06T14:55:26Z</time>
      </trkpt>
      <trkpt lat="43.444144" lon="2.069635">
        <ele>439.7</ele>
        <time>2014-04-06T14:55:46Z</time>
      </trkpt>
      <trkpt lat="43.444219" lon="2.069579">
        <ele>436.6</ele>
        <time>2014-04-06T14:56:02Z</time>
      </trkpt>
      <trkpt lat="43.444311" lon="2.069551">
        <ele>433.2</ele>
        <time>2014-04-06T14:56:21Z</time>
      </trkpt>
      <trkpt lat="43.444404" lon="2.069539">
        <ele>430.0</ele>
        <time>2014-04-06T14:56:36Z</time>
      </trkpt>
      <trkpt lat="43.444502" lon="2.069554">
        <ele>427.6</ele>
        <time>2014-04-06T14:56:57Z</time>
      </trkpt>
      <trkpt lat="43.444599" lon="2.069482">
        <ele>422.9</ele>
        <time>2014-04-06T14:57:17Z</time>
      </trkpt>
      <trkpt lat="43.444700" lon="2.069381">
        <ele>419.4</ele>
        <time>2014-04-06T14:57:34Z</time>
      </trkpt>
      <trkpt lat="43.444784" lon="2.069277">
        <ele>414.7</ele>
        <time>2014-04-06T14:57:55Z</time>
      </trkpt>
      <trkpt lat="43.444867" lon="2.069169">
        <ele>413.1</ele>
        <time>2014-04-06T14:58:12Z</time>
      </trkpt>
      <trkpt lat="43.444867" lon="2.069144">
        <ele>413.0</ele>
        <time>2014-04-06T14:58:52Z</time>
      </trkpt>
      <trkpt lat="43.444916" lon="2.068944">
        <ele>405.1</ele>
        <time>2014-04-06T15:00:11Z</time>
      </trkpt>
      <trkpt lat="43.444961" lon="2.068822">
        <ele>402.5</ele>
        <time>2014-04-06T15:00:27Z</time>
      </trkpt>
      <trkpt lat="43.444992" lon="2.068756">
        <ele>399.6</ele>
        <time>2014-04-06T15:00:52Z</time>
      </trkpt>
      <trkpt lat="43.445046" lon="2.068637">
        <ele>395.4</ele>
        <time>2014-04-06T15:01:13Z</time>
      </trkpt>
      <trkpt lat="43.445112" lon="2.068462">
        <ele>392.4</ele>
        <time>2014-04-06T15:01:30Z</time>
      </trkpt>
      <trkpt lat="43.445199" lon="2.068353">
        <ele>390.1</ele>
        <time>2014-04-06T15:01:46Z</time>
      </trkpt>
      <trkpt lat="43.445251" lon="2.068313">
        <ele>388.4</ele>
        <time>2014-04-06T15:02:44Z</time>
      </trkpt>
      <trkpt lat="43.445287" lon="2.068202">
        <ele>384.6</ele>
        <time>2014-04-06T15:03:04Z</time>
      </trkpt>
      <trkpt lat="43.445254" lon="2.068071">
        <ele>380.2</ele>
        <time>2014-04-06T15:03:25Z</time>
      </trkpt>
      <trkpt lat="43.445314" lon="2.067947">
        <ele>377.0</ele>
        <time>2014-04-06T15:03:44Z</time>
      </trkpt>
      <trkpt lat="43.445348" lon="2.067802">
        <ele>372.5</ele>
        <time>2014-04-06T15:04:06Z</time>
      </trkpt>
      <trkpt lat="43.445386" lon="2.067664">
        <ele>369.5</ele>
        <time>2014-04-06T15:04:26Z</time>
      </trkpt>
      <trkpt lat="43.445461" lon="2.067536">
        <ele>365.8</ele>
        <time>2014-04-06T15:04:45Z</time>
      </trkpt>
      <trkpt lat="43.445491" lon="2.067414">
        <ele>361.9</ele>
        <time>2014-04-06T15:05:06Z</time>
      </trkpt>
      <trkpt lat="43.445486" lon="2.067274">
        <ele>357.1</ele>
        <time>2014-04-06T15:05:32Z</time>
      </trkpt>
      <trkpt lat="43.445506" lon="2.067158">
        <ele>353.2</ele>
        <time>2014-04-06T15:05:52Z</time>
      </trkpt>
      <trkpt lat="43.445530" lon="2.067011">
        <ele>351.1</ele>
        <time>2014-04-06T15:06:09Z</time>
      </trkpt>
      <trkpt lat="43.445602" lon="2.066918">
        <ele>348.2</ele>
        <time>2014-04-06T15:06:27Z</time>
      </trkpt>
      <trkpt lat="43.445631" lon="2.066790">
        <ele>346.0</ele>
        <time>2014-04-06T15:06:44Z</time>
      </trkpt>
      <trkpt lat="43.445707" lon="2.066745">
        <ele>344.2</ele>
        <time>2014-04-06T15:07:19Z</time>
      </trkpt>
      <trkpt lat="43.445873" lon="2.066712">
        <ele>342.5</ele>
        <time>2014-04-06T15:07:36Z</time>
      </trkpt>
      <trkpt lat="43.446027" lon="2.066693">
        <ele>341.1</ele>
        <time>2014-04-06T15:07:50Z</time>
      </trkpt>
      <trkpt lat="43.446142" lon="2.066723">
        <ele>339.5</ele>
        <time>2014-04-06T15:08:03Z</time>
      </trkpt>
      <trkpt lat="43.446250" lon="2.066772">
        <ele>337.6</ele>
        <time>2014-04-06T15:08:16Z</time>
      </trkpt>
      <trkpt lat="43.446356" lon="2.066840">
        <ele>336.6</ele>
        <time>2014-04-06T15:08:26Z</time>
      </trkpt>
      <trkpt lat="43.446470" lon="2.066937">
        <ele>335.6</ele>
        <time>2014-04-06T15:08:36Z</time>
      </trkpt>
      <trkpt lat="43.446580" lon="2.067064">
        <ele>334.0</ele>
        <time>2014-04-06T15:08:49Z</time>
      </trkpt>
      <trkpt lat="43.446663" lon="2.067240">
        <ele>332.7</ele>
        <time>2014-04-06T15:09:00Z</time>
      </trkpt>
      <trkpt lat="43.446757" lon="2.067392">
        <ele>331.1</ele>
        <time>2014-04-06T15:09:15Z</time>
      </trkpt>
      <trkpt lat="43.446792" lon="2.067309">
        <ele>329.6</ele>
        <time>2014-04-06T15:09:29Z</time>
      </trkpt>
      <trkpt lat="43.446785" lon="2.067156">
        <ele>327.8</ele>
        <time>2014-04-06T15:09:41Z</time>
      </trkpt>
      <trkpt lat="43.446777" lon="2.066951">
        <ele>325.7</ele>
        <time>2014-04-06T15:09:57Z</time>
      </trkpt>
      <trkpt lat="43.446769" lon="2.066774">
        <ele>324.2</ele>
        <time>2014-04-06T15:10:12Z</time>
      </trkpt>
      <trkpt lat="43.446733" lon="2.066608">
        <ele>322.9</ele>
        <time>2014-04-06T15:10:25Z</time>
      </trkpt>
      <trkpt lat="43.446696" lon="2.066445">
        <ele>321.8</ele>
        <time>2014-04-06T15:10:37Z</time>
      </trkpt>
      <trkpt lat="43.446660" lon="2.066272">
        <ele>320.6</ele>
        <time>2014-04-06T15:10:51Z</time>
      </trkpt>
      <trkpt lat="43.446603" lon="2.066094">
        <ele>319.3</ele>
        <time>2014-04-06T15:11:05Z</time>
      </trkpt>
      <trkpt lat="43.446548" lon="2.065941">
        <ele>317.9</ele>
        <time>2014-04-06T15:11:18Z</time>
      </trkpt>
      <trkpt lat="43.446499" lon="2.065794">
        <ele>316.9</ele>
        <time>2014-04-06T15:11:30Z</time>
      </trkpt>
      <trkpt lat="43.446463" lon="2.065640">
        <ele>315.5</ele>
        <time>2014-04-06T15:11:44Z</time>
      </trkpt>
      <trkpt lat="43.446415" lon="2.065492">
        <ele>313.8</ele>
        <time>2014-04-06T15:11:57Z</time>
      </trkpt>
      <trkpt lat="43.446377" lon="2.065314">
        <ele>312.0</ele>
        <time>2014-04-06T15:12:10Z</time>
      </trkpt>
      <trkpt lat="43.446444" lon="2.065166">
        <ele>309.7</ele>
        <time>2014-04-06T15:12:27Z</time>
      </trkpt>
      <trkpt lat="43.446511" lon="2.065019">
        <ele>306.8</ele>
        <time>2014-04-06T15:12:43Z</time>
      </trkpt>
      <trkpt lat="43.446615" lon="2.064886">
        <ele>304.5</ele>
        <time>2014-04-06T15:12:58Z</time>
      </trkpt>
      <trkpt lat="43.446627" lon="2.064752">
        <ele>302.8</ele>
        <time>2014-04-06T15:13:10Z</time>
      </trkpt>
      <trkpt lat="43.446646" lon="2.064603">
        <ele>300.3</ele>
        <time>2014-04-06T15:13:24Z</time>
      </trkpt>
      <trkpt lat="43.446683" lon="2.064415">
        <ele>298.2</ele>
        <time>2014-04-06T15:13:38Z</time>
      </trkpt>
      <trkpt lat="43.446708" lon="2.064277">
        <ele>295.6</ele>
        <time>2014-04-06T15:13:51Z</time>
      </trkpt>
      <trkpt lat="43.446753" lon="2.064124">
        <ele>293.9</ele>
        <time>2014-04-06T15:14:03Z</time>
      </trkpt>
      <trkpt lat="43.446801" lon="2.063934">
        <ele>291.9</ele>
        <time>2014-04-06T15:14:14Z</time>
      </trkpt>
      <trkpt lat="43.446879" lon="2.063860">
        <ele>290.4</ele>
        <time>2014-04-06T15:14:26Z</time>
      </trkpt>
      <trkpt lat="43.447018" lon="2.063828">
        <ele>290.0</ele>
        <time>2014-04-06T15:14:37Z</time>
      </trkpt>
      <trkpt lat="43.447137" lon="2.063873">
        <ele>289.9</ele>
        <time>2014-04-06T15:14:46Z</time>
      </trkpt>
      <trkpt lat="43.447232" lon="2.063921">
        <ele>289.4</ele>
        <time>2014-04-06T15:14:54Z</time>
      </trkpt>
      <trkpt lat="43.447357" lon="2.063971">
        <ele>288.8</ele>
        <time>2014-04-06T15:15:07Z</time>
      </trkpt>
      <trkpt lat="43.447463" lon="2.064027">
        <ele>288.3</ele>
        <time>2014-04-06T15:15:18Z</time>
      </trkpt>
      <trkpt lat="43.447583" lon="2.064079">
        <ele>287.9</ele>
        <time>2014-04-06T15:15:29Z</time>
      </trkpt>
      <trkpt lat="43.447716" lon="2.064157">
        <ele>287.0</ele>
        <time>2014-04-06T15:15:37Z</time>
      </trkpt>
      <trkpt lat="43.447818" lon="2.064219">
        <ele>286.7</ele>
        <time>2014-04-06T15:15:47Z</time>
      </trkpt>
      <trkpt lat="43.447916" lon="2.064293">
        <ele>285.8</ele>
        <time>2014-04-06T15:15:58Z</time>
      </trkpt>
      <trkpt lat="43.448036" lon="2.064380">
        <ele>284.3</ele>
        <time>2014-04-06T15:16:11Z</time>
      </trkpt>
      <trkpt lat="43.448135" lon="2.064437">
        <ele>283.4</ele>
        <time>2014-04-06T15:16:23Z</time>
      </trkpt>
      <trkpt lat="43.448252" lon="2.064496">
        <ele>282.3</ele>
        <time>2014-04-06T15:16:36Z</time>
      </trkpt>
      <trkpt lat="43.448356" lon="2.064542">
        <ele>280.9</ele>
        <time>2014-04-06T15:16:48Z</time>
      </trkpt>
      <trkpt lat="43.448463" lon="2.064563">
        <ele>279.9</ele>
        <time>2014-04-06T15:16:58Z</time>
      </trkpt>
      <trkpt lat="43.448561" lon="2.064630">
        <ele>278.4</ele>
        <time>2014-04-06T15:17:09Z</time>
      </trkpt>
      <trkpt lat="43.448670" lon="2.064715">
        <ele>277.0</ele>
        <time>2014-04-06T15:17:22Z</time>
      </trkpt>
      <trkpt lat="43.448794" lon="2.064768">
        <ele>276.0</ele>
        <time>2014-04-06T15:17:34Z</time>
      </trkpt>
      <trkpt lat="43.448928" lon="2.064801">
        <ele>275.3</ele>
        <time>2014-04-06T15:17:46Z</time>
      </trkpt>
      <trkpt lat="43.449035" lon="2.064795">
        <ele>274.9</ele>
        <time>2014-04-06T15:17:57Z</time>
      </trkpt>
      <trkpt lat="43.449142" lon="2.064808">
        <ele>273.7</ele>
        <time>2014-04-06T15:18:09Z</time>
      </trkpt>
      <trkpt lat="43.449239" lon="2.064827">
        <ele>273.0</ele>
        <time>2014-04-06T15:18:19Z</time>
      </trkpt>
      <trkpt lat="43.449350" lon="2.064811">
        <ele>272.4</ele>
        <time>2014-04-06T15:18:27Z</time>
      </trkpt>
      <trkpt lat="43.449464" lon="2.064799">
        <ele>271.9</ele>
        <time>2014-04-06T15:18:37Z</time>
      </trkpt>
      <trkpt lat="43.449561" lon="2.064805">
        <ele>271.6</ele>
        <time>2014-04-06T15:18:45Z</time>
      </trkpt>
      <trkpt lat="43.449658" lon="2.064796">
        <ele>271.3</ele>
        <time>2014-04-06T15:18:53Z</time>
      </trkpt>
      <trkpt lat="43.449778" lon="2.064776">
        <ele>271.3</ele>
        <time>2014-04-06T15:19:02Z</time>
      </trkpt>
      <trkpt lat="43.449890" lon="2.064778">
        <ele>271.2</ele>
        <time>2014-04-06T15:19:11Z</time>
      </trkpt>
      <trkpt lat="43.449995" lon="2.064776">
        <ele>271.0</ele>
        <time>2014-04-06T15:19:20Z</time>
      </trkpt>
      <trkpt lat="43.450098" lon="2.064741">
        <ele>270.9</ele>
        <time>2014-04-06T15:19:30Z</time>
      </trkpt>
      <trkpt lat="43.450198" lon="2.064725">
        <ele>270.8</ele>
        <time>2014-04-06T15:19:38Z</time>
      </trkpt>
      <trkpt lat="43.450295" lon="2.064725">
        <ele>270.8</ele>
        <time>2014-04-06T15:19:46Z</time>
      </trkpt>
      <trkpt lat="43.450402" lon="2.064737">
        <ele>270.9</ele>
        <time>2014-04-06T15:19:54Z</time>
      </trkpt>
      <trkpt lat="43.450493" lon="2.064792">
        <ele>271.0</ele>
        <time>2014-04-06T15:20:02Z</time>
      </trkpt>
      <trkpt lat="43.450532" lon="2.064964">
        <ele>271.5</ele>
        <time>2014-04-06T15:20:12Z</time>
      </trkpt>
      <trkpt lat="43.450513" lon="2.065121">
        <ele>271.7</ele>
        <time>2014-04-06T15:20:22Z</time>
      </trkpt>
      <trkpt lat="43.450482" lon="2.065243">
        <ele>272.1</ele>
        <time>2014-04-06T15:20:32Z</time>
      </trkpt>
      <trkpt lat="43.450436" lon="2.065374">
        <ele>272.8</ele>
        <time>2014-04-06T15:20:43Z</time>
      </trkpt>
      <trkpt lat="43.450396" lon="2.065484">
        <ele>272.9</ele>
        <time>2014-04-06T15:20:52Z</time>
      </trkpt>
      <trkpt lat="43.450349" lon="2.065612">
        <ele>272.9</ele>
        <time>2014-04-06T15:21:03Z</time>
      </trkpt>
      <trkpt lat="43.450328" lon="2.065695">
        <ele>273.3</ele>
        <time>2014-04-06T15:21:24Z</time>
      </trkpt>
      <trkpt lat="43.450295" lon="2.065828">
        <ele>273.3</ele>
        <time>2014-04-06T15:21:40Z</time>
      </trkpt>
      <trkpt lat="43.450267" lon="2.065963">
        <ele>273.6</ele>
        <time>2014-04-06T15:21:52Z</time>
      </trkpt>
      <trkpt lat="43.450220" lon="2.066073">
        <ele>273.7</ele>
        <time>2014-04-06T15:22:42Z</time>
      </trkpt>
    </trkseg>
  </trk>
</gpx>

